KLM713 EHAM-SMJP
Flight info
| Callsign | KLM713 |
|---|---|
| Flight time | 8h 53m |
| Altitude | 34000 |
| Route | IDRID L980 LOGAN DCT SAM N19 ADKIK DCT JOZMA DCT GAPLI/M083F340 DCT OMOKO DCT 45N020W 38N030W/M083F360 33N035W 28N040W/M083F380 24N045W DCT NEZBT/N0480F380 DCT 16N050W 0927N05300W 0730N05400W DCT TODOL |
| Aircraft | B744/H-SDE3FGHIM1M2RWXY/LB1 |
Departure
| Time | 2026-04-28 10:05 |
|---|---|
| Airport | Amsterdam Airport Schiphol (EHAM) |
Arrival
| Time | 2026-04-28 18:59 |
|---|---|
| Airport | Johan Adolf Pengel International Airport (SMJP) |
| Time | Latitude | Longitude | Altitude | Speed | Heading |
|---|---|---|---|---|---|
| 2026-04-28 09:33 | 52.31353 | 4.75574 | 5 ft | 0 kts | 86° |
| 2026-04-28 09:51 | 52.31352 | 4.75563 | 5 ft | 2 kts | 85° |
| 2026-04-28 09:52 | 52.31350 | 4.75536 | 6 ft | 2 kts | 76° |
| 2026-04-28 09:52 | 52.31346 | 4.75509 | 6 ft | 2 kts | 71° |
| 2026-04-28 09:52 | 52.31340 | 4.75484 | 8 ft | 2 kts | 56° |
| 2026-04-28 09:52 | 52.31329 | 4.75463 | 8 ft | 2 kts | 28° |
| 2026-04-28 09:53 | 52.31314 | 4.75453 | 7 ft | 2 kts | 4° |
| 2026-04-28 09:53 | 52.31300 | 4.75452 | 7 ft | 1 kts | 356° |
| 2026-04-28 09:53 | 52.31299 | 4.75452 | 5 ft | 0 kts | 356° |
| 2026-04-28 10:00 | 52.31303 | 4.75452 | 5 ft | 2 kts | 356° |
| 2026-04-28 10:01 | 52.31330 | 4.75450 | 5 ft | 7 kts | 357° |
| 2026-04-28 10:01 | 52.31392 | 4.75446 | 5 ft | 11 kts | 358° |
| 2026-04-28 10:01 | 52.31463 | 4.75442 | 5 ft | 9 kts | 355° |
| 2026-04-28 10:01 | 52.31494 | 4.75416 | 5 ft | 2 kts | 315° |
| 2026-04-28 10:02 | 52.31507 | 4.75346 | 5 ft | 10 kts | 272° |
| 2026-04-28 10:02 | 52.31503 | 4.75179 | 5 ft | 17 kts | 268° |
| 2026-04-28 10:02 | 52.31497 | 4.74974 | 5 ft | 19 kts | 266° |
| 2026-04-28 10:02 | 52.31489 | 4.74776 | 5 ft | 15 kts | 266° |
| 2026-04-28 10:03 | 52.31520 | 4.74673 | 6 ft | 6 kts | 329° |
| 2026-04-28 10:03 | 52.31571 | 4.74662 | 6 ft | 11 kts | 357° |
| 2026-04-28 10:03 | 52.31643 | 4.74686 | 6 ft | 9 kts | 36° |
| 2026-04-28 10:03 | 52.31667 | 4.74751 | 6 ft | 3 kts | 78° |
| 2026-04-28 10:04 | 52.31668 | 4.74768 | 6 ft | 0 kts | 87° |
| 2026-04-28 10:04 | 52.31668 | 4.74776 | 6 ft | 1 kts | 87° |
| 2026-04-28 10:04 | 52.31668 | 4.74793 | 5 ft | 2 kts | 86° |
| 2026-04-28 10:04 | 52.31670 | 4.74837 | 5 ft | 18 kts | 86° |
| 2026-04-28 10:05 | 52.31696 | 4.75572 | 4 ft | 108 kts | 88° |
| 2026-04-28 10:05 | 52.31748 | 4.77215 | 24 ft | 180 kts | 85° |
| 2026-04-28 10:05 | 52.31800 | 4.79443 | 344 ft | 201 kts | 85° |
| 2026-04-28 10:05 | 52.31740 | 4.81810 | 775 ft | 222 kts | 102° |
| 2026-04-28 10:06 | 52.30872 | 4.83963 | 1388 ft | 235 kts | 136° |
| 2026-04-28 10:06 | 52.29335 | 4.85115 | 2172 ft | 251 kts | 170° |
| 2026-04-28 10:06 | 52.27711 | 4.84600 | 3926 ft | 235 kts | 204° |
| 2026-04-28 10:06 | 52.26408 | 4.82856 | 4839 ft | 252 kts | 232° |
| 2026-04-28 10:07 | 52.25301 | 4.80618 | 5748 ft | 258 kts | 226° |
| 2026-04-28 10:07 | 52.24052 | 4.78357 | 6142 ft | 285 kts | 225° |
| 2026-04-28 10:07 | 52.22648 | 4.76089 | 7131 ft | 284 kts | 216° |
| 2026-04-28 10:08 | 52.21402 | 4.74571 | 7926 ft | 285 kts | 214° |
| 2026-04-28 10:08 | 52.20045 | 4.72193 | 8918 ft | 292 kts | 233° |
| 2026-04-28 10:08 | 52.18938 | 4.69387 | 9858 ft | 296 kts | 237° |
| 2026-04-28 10:09 | 52.17921 | 4.66506 | 10711 ft | 305 kts | 238° |
| 2026-04-28 10:09 | 52.16807 | 4.63385 | 10947 ft | 332 kts | 237° |
| 2026-04-28 10:09 | 52.15566 | 4.60040 | 11270 ft | 353 kts | 237° |
| 2026-04-28 10:09 | 52.14654 | 4.57591 | 11959 ft | 353 kts | 237° |
| 2026-04-28 10:10 | 52.13378 | 4.54124 | 12753 ft | 359 kts | 237° |
| 2026-04-28 10:10 | 52.12086 | 4.50602 | 13574 ft | 363 kts | 237° |
| 2026-04-28 10:10 | 52.10888 | 4.46963 | 14299 ft | 370 kts | 249° |
| 2026-04-28 10:10 | 52.10347 | 4.42829 | 15004 ft | 375 kts | 263° |
| 2026-04-28 10:11 | 52.10169 | 4.38592 | 15703 ft | 379 kts | 266° |
| 2026-04-28 10:11 | 52.10033 | 4.34291 | 16387 ft | 382 kts | 264° |
| 2026-04-28 10:11 | 52.09784 | 4.29959 | 17043 ft | 386 kts | 262° |
| 2026-04-28 10:11 | 52.09496 | 4.25620 | 17737 ft | 388 kts | 263° |
| 2026-04-28 10:12 | 52.09253 | 4.21264 | 18363 ft | 392 kts | 264° |
| 2026-04-28 10:12 | 52.09028 | 4.16799 | 18945 ft | 396 kts | 263° |
| 2026-04-28 10:12 | 52.08780 | 4.12332 | 19471 ft | 399 kts | 263° |
| 2026-04-28 10:12 | 52.08512 | 4.07820 | 20009 ft | 402 kts | 263° |
| 2026-04-28 10:13 | 52.08253 | 4.03334 | 20514 ft | 405 kts | 263° |
| 2026-04-28 10:13 | 52.07995 | 3.98736 | 21036 ft | 408 kts | 263° |
| 2026-04-28 10:13 | 52.07730 | 3.94138 | 21527 ft | 411 kts | 263° |
| 2026-04-28 10:13 | 52.07455 | 3.89467 | 22012 ft | 414 kts | 263° |
| 2026-04-28 10:14 | 52.07181 | 3.85110 | 22473 ft | 416 kts | 258° |
| 2026-04-28 10:14 | 52.06430 | 3.80554 | 22929 ft | 416 kts | 249° |
| 2026-04-28 10:14 | 52.05448 | 3.76109 | 23378 ft | 419 kts | 247° |
| 2026-04-28 10:14 | 52.04445 | 3.71717 | 23848 ft | 420 kts | 248° |
| 2026-04-28 10:15 | 52.03469 | 3.67225 | 24203 ft | 423 kts | 249° |
| 2026-04-28 10:15 | 52.02501 | 3.62689 | 24579 ft | 425 kts | 248° |
| 2026-04-28 10:15 | 52.01506 | 3.58154 | 24941 ft | 427 kts | 248° |
| 2026-04-28 10:15 | 52.00494 | 3.53611 | 25316 ft | 428 kts | 248° |
| 2026-04-28 10:16 | 51.99319 | 3.49177 | 25651 ft | 428 kts | 236° |
| 2026-04-28 10:16 | 51.97632 | 3.45193 | 25963 ft | 428 kts | 231° |
| 2026-04-28 10:16 | 51.95870 | 3.41297 | 26323 ft | 430 kts | 231° |
| 2026-04-28 10:16 | 51.94093 | 3.37395 | 26685 ft | 431 kts | 231° |
| 2026-04-28 10:17 | 51.92309 | 3.33452 | 27031 ft | 433 kts | 232° |
| 2026-04-28 10:17 | 51.90526 | 3.29507 | 27379 ft | 435 kts | 231° |
| 2026-04-28 10:17 | 51.88728 | 3.25553 | 27699 ft | 437 kts | 232° |
| 2026-04-28 10:17 | 51.86943 | 3.21613 | 28070 ft | 439 kts | 235° |
| 2026-04-28 10:18 | 51.85492 | 3.17261 | 28390 ft | 443 kts | 248° |
| 2026-04-28 10:18 | 51.84643 | 3.12394 | 28698 ft | 448 kts | 261° |
| 2026-04-28 10:18 | 51.84279 | 3.07424 | 28993 ft | 451 kts | 263° |
| 2026-04-28 10:18 | 51.83957 | 3.02366 | 29342 ft | 453 kts | 263° |
| 2026-04-28 10:19 | 51.83635 | 2.97271 | 29655 ft | 455 kts | 263° |
| 2026-04-28 10:19 | 51.83298 | 2.92176 | 29962 ft | 458 kts | 263° |
| 2026-04-28 10:19 | 51.82951 | 2.87029 | 30261 ft | 461 kts | 263° |
| 2026-04-28 10:19 | 51.82608 | 2.81887 | 30565 ft | 462 kts | 263° |
| 2026-04-28 10:20 | 51.82265 | 2.76727 | 30819 ft | 464 kts | 263° |
| 2026-04-28 10:20 | 51.81913 | 2.71511 | 31059 ft | 467 kts | 263° |
| 2026-04-28 10:20 | 51.81555 | 2.66273 | 31319 ft | 469 kts | 263° |
| 2026-04-28 10:20 | 51.81193 | 2.61004 | 31583 ft | 470 kts | 263° |
| 2026-04-28 10:21 | 51.80830 | 2.55758 | 31826 ft | 472 kts | 263° |
| 2026-04-28 10:21 | 51.80466 | 2.50536 | 32065 ft | 474 kts | 263° |
| 2026-04-28 10:21 | 51.80094 | 2.45230 | 32284 ft | 476 kts | 263° |
| 2026-04-28 10:21 | 51.79714 | 2.39846 | 32557 ft | 477 kts | 263° |
| 2026-04-28 10:22 | 51.79339 | 2.34566 | 32804 ft | 479 kts | 263° |
| 2026-04-28 10:22 | 51.78956 | 2.29200 | 33057 ft | 481 kts | 263° |
| 2026-04-28 10:22 | 51.78571 | 2.23850 | 33260 ft | 483 kts | 263° |
| 2026-04-28 10:22 | 51.78275 | 2.18447 | 33532 ft | 483 kts | 265° |
| 2026-04-28 10:23 | 51.77950 | 2.13055 | 33768 ft | 484 kts | 264° |
| 2026-04-28 10:23 | 51.77582 | 2.07627 | 33991 ft | 486 kts | 264° |
| 2026-04-28 10:23 | 51.77258 | 2.02193 | 34198 ft | 488 kts | 265° |
| 2026-04-28 10:23 | 51.76959 | 1.96693 | 34286 ft | 491 kts | 265° |
| 2026-04-28 10:24 | 51.76283 | 1.85752 | 34284 ft | 490 kts | 264° |
| 2026-04-28 10:24 | 51.75617 | 1.74858 | 34292 ft | 489 kts | 265° |
| 2026-04-28 10:25 | 51.74921 | 1.63961 | 34294 ft | 488 kts | 261° |
| 2026-04-28 10:25 | 51.74108 | 1.58644 | 34317 ft | 489 kts | 249° |
| 2026-04-28 10:25 | 51.72837 | 1.53475 | 34302 ft | 491 kts | 248° |
| 2026-04-28 10:26 | 51.70245 | 1.43299 | 34302 ft | 490 kts | 248° |
| 2026-04-28 10:26 | 51.67694 | 1.33182 | 34303 ft | 489 kts | 248° |
| 2026-04-28 10:27 | 51.65112 | 1.23074 | 34303 ft | 488 kts | 248° |
| 2026-04-28 10:27 | 51.62525 | 1.12946 | 34306 ft | 487 kts | 248° |
| 2026-04-28 10:28 | 51.59940 | 1.02894 | 34311 ft | 486 kts | 248° |
| 2026-04-28 10:29 | 51.56066 | 0.87899 | 34311 ft | 486 kts | 248° |
| 2026-04-28 10:29 | 51.53455 | 0.77856 | 34311 ft | 487 kts | 248° |
| 2026-04-28 10:30 | 51.50837 | 0.67815 | 34317 ft | 487 kts | 248° |
| 2026-04-28 10:30 | 51.48236 | 0.57899 | 34316 ft | 487 kts | 248° |
| 2026-04-28 10:31 | 51.45574 | 0.47784 | 34313 ft | 486 kts | 248° |
| 2026-04-28 10:31 | 51.42930 | 0.37788 | 34304 ft | 487 kts | 248° |
| 2026-04-28 10:32 | 51.40289 | 0.27849 | 34307 ft | 486 kts | 248° |
| 2026-04-28 10:32 | 51.37640 | 0.17913 | 34312 ft | 486 kts | 248° |
| 2026-04-28 10:33 | 51.34973 | 0.07962 | 34316 ft | 486 kts | 248° |
| 2026-04-28 10:33 | 51.32294 | -0.01996 | 34315 ft | 487 kts | 248° |
| 2026-04-28 10:34 | 51.29627 | -0.11866 | 34318 ft | 487 kts | 248° |
| 2026-04-28 10:34 | 51.26923 | -0.21830 | 34294 ft | 488 kts | 248° |
| 2026-04-28 10:35 | 51.24336 | -0.31321 | 34284 ft | 487 kts | 248° |
| 2026-04-28 10:35 | 51.21621 | -0.41240 | 34286 ft | 488 kts | 247° |
| 2026-04-28 10:36 | 51.18905 | -0.51120 | 34308 ft | 487 kts | 247° |
| 2026-04-28 10:36 | 51.16181 | -0.60997 | 34308 ft | 487 kts | 247° |
| 2026-04-28 10:37 | 51.13461 | -0.70802 | 34305 ft | 486 kts | 247° |
| 2026-04-28 10:37 | 51.10726 | -0.80635 | 34284 ft | 487 kts | 247° |
| 2026-04-28 10:38 | 51.07965 | -0.90504 | 34283 ft | 487 kts | 247° |
| 2026-04-28 10:38 | 51.05207 | -1.00335 | 34281 ft | 487 kts | 247° |
| 2026-04-28 10:39 | 51.02436 | -1.10165 | 34280 ft | 487 kts | 247° |
| 2026-04-28 10:39 | 50.99654 | -1.19993 | 34284 ft | 488 kts | 247° |
| 2026-04-28 10:40 | 50.96870 | -1.29788 | 34288 ft | 487 kts | 247° |
| 2026-04-28 10:40 | 50.94836 | -1.39916 | 34292 ft | 486 kts | 260° |
| 2026-04-28 10:41 | 50.93506 | -1.50420 | 34284 ft | 487 kts | 260° |
| 2026-04-28 10:41 | 50.92148 | -1.60967 | 34300 ft | 488 kts | 260° |
| 2026-04-28 10:42 | 50.90789 | -1.71497 | 34293 ft | 488 kts | 260° |
| 2026-04-28 10:42 | 50.89411 | -1.82063 | 34290 ft | 490 kts | 259° |
| 2026-04-28 10:43 | 50.88034 | -1.92560 | 34282 ft | 490 kts | 259° |
| 2026-04-28 10:43 | 50.86635 | -2.03140 | 34282 ft | 491 kts | 259° |
| 2026-04-28 10:44 | 50.85221 | -2.13754 | 34282 ft | 492 kts | 259° |
| 2026-04-28 10:44 | 50.84166 | -2.21626 | 34275 ft | 492 kts | 259° |
| 2026-04-28 10:45 | 50.82499 | -2.33963 | 34275 ft | 493 kts | 259° |
| 2026-04-28 10:45 | 50.81293 | -2.42837 | 34276 ft | 493 kts | 259° |
| 2026-04-28 10:46 | 50.79841 | -2.53438 | 34280 ft | 493 kts | 259° |
| 2026-04-28 10:46 | 50.78612 | -2.64035 | 34286 ft | 494 kts | 261° |
| 2026-04-28 10:47 | 50.77338 | -2.74705 | 34282 ft | 493 kts | 261° |
| 2026-04-28 10:47 | 50.76109 | -2.85383 | 34283 ft | 494 kts | 261° |
| 2026-04-28 10:48 | 50.74830 | -2.96069 | 34283 ft | 495 kts | 261° |
| 2026-04-28 10:48 | 50.73566 | -3.06753 | 34283 ft | 496 kts | 261° |
| 2026-04-28 10:49 | 50.72272 | -3.17463 | 34287 ft | 496 kts | 261° |
| 2026-04-28 10:49 | 50.70986 | -3.28111 | 34286 ft | 497 kts | 261° |
| 2026-04-28 10:50 | 50.69673 | -3.38835 | 34288 ft | 497 kts | 261° |
| 2026-04-28 10:50 | 50.68357 | -3.49537 | 34285 ft | 498 kts | 261° |
| 2026-04-28 10:51 | 50.67026 | -3.60253 | 34290 ft | 498 kts | 261° |
| 2026-04-28 10:51 | 50.65690 | -3.70934 | 34286 ft | 499 kts | 261° |
| 2026-04-28 10:52 | 50.64335 | -3.81669 | 34311 ft | 499 kts | 261° |
| 2026-04-28 10:52 | 50.62973 | -3.92389 | 34286 ft | 500 kts | 261° |
| 2026-04-28 10:53 | 50.61543 | -4.03137 | 34300 ft | 501 kts | 259° |
| 2026-04-28 10:53 | 50.60053 | -4.13870 | 34292 ft | 502 kts | 260° |
| 2026-04-28 10:54 | 50.58592 | -4.24601 | 34296 ft | 503 kts | 260° |
| 2026-04-28 10:54 | 50.57088 | -4.35363 | 34288 ft | 503 kts | 260° |
| 2026-04-28 10:55 | 50.55592 | -4.46127 | 34292 ft | 504 kts | 259° |
| 2026-04-28 10:55 | 50.54071 | -4.56901 | 34290 ft | 504 kts | 260° |
| 2026-04-28 10:56 | 50.52559 | -4.67593 | 34290 ft | 505 kts | 259° |
| 2026-04-28 10:56 | 50.51018 | -4.78376 | 34288 ft | 506 kts | 259° |
| 2026-04-28 10:57 | 50.49464 | -4.89189 | 34287 ft | 506 kts | 259° |
| 2026-04-28 10:57 | 50.47901 | -4.99982 | 34281 ft | 507 kts | 259° |
| 2026-04-28 10:58 | 50.46337 | -5.10715 | 34286 ft | 508 kts | 259° |
| 2026-04-28 10:58 | 50.44750 | -5.21524 | 34290 ft | 510 kts | 259° |
| 2026-04-28 10:59 | 50.43147 | -5.32364 | 34284 ft | 510 kts | 259° |
| 2026-04-28 10:59 | 50.41530 | -5.43231 | 34282 ft | 512 kts | 259° |
| 2026-04-28 11:00 | 50.39897 | -5.54122 | 34277 ft | 513 kts | 259° |
| 2026-04-28 11:00 | 50.38256 | -5.64994 | 34275 ft | 514 kts | 259° |
| 2026-04-28 11:01 | 50.36610 | -5.75828 | 34283 ft | 514 kts | 259° |
| 2026-04-28 11:01 | 50.34945 | -5.86707 | 34287 ft | 514 kts | 259° |
| 2026-04-28 11:02 | 50.33265 | -5.97615 | 34290 ft | 515 kts | 259° |
| 2026-04-28 11:02 | 50.31574 | -6.08515 | 34294 ft | 516 kts | 259° |
| 2026-04-28 11:03 | 50.29868 | -6.19440 | 34304 ft | 517 kts | 259° |
| 2026-04-28 11:03 | 50.28155 | -6.30342 | 34304 ft | 517 kts | 259° |
| 2026-04-28 11:04 | 50.26435 | -6.41203 | 34306 ft | 516 kts | 259° |
| 2026-04-28 11:04 | 50.24698 | -6.52118 | 34307 ft | 519 kts | 259° |
| 2026-04-28 11:05 | 50.22942 | -6.63063 | 34315 ft | 520 kts | 259° |
| 2026-04-28 11:05 | 50.21173 | -6.74025 | 34315 ft | 521 kts | 259° |
| 2026-04-28 11:06 | 50.19393 | -6.84981 | 34315 ft | 521 kts | 259° |
| 2026-04-28 11:06 | 50.17599 | -6.95952 | 34313 ft | 522 kts | 259° |
| 2026-04-28 11:07 | 50.15789 | -7.06944 | 34320 ft | 523 kts | 259° |
| 2026-04-28 11:07 | 50.13978 | -7.17880 | 34318 ft | 524 kts | 258° |
| 2026-04-28 11:08 | 50.12134 | -7.28939 | 34323 ft | 524 kts | 258° |
| 2026-04-28 11:08 | 50.10299 | -7.39877 | 34317 ft | 525 kts | 258° |
| 2026-04-28 11:09 | 50.08440 | -7.50884 | 34316 ft | 525 kts | 258° |
| 2026-04-28 11:09 | 50.06571 | -7.61879 | 34311 ft | 526 kts | 258° |
| 2026-04-28 11:10 | 50.04686 | -7.72902 | 34313 ft | 526 kts | 258° |
| 2026-04-28 11:10 | 50.02797 | -7.83875 | 34309 ft | 526 kts | 258° |
| 2026-04-28 11:11 | 50.00892 | -7.94878 | 34307 ft | 526 kts | 258° |
| 2026-04-28 11:11 | 49.98515 | -8.05612 | 34313 ft | 530 kts | 250° |
| 2026-04-28 11:12 | 49.95665 | -8.16182 | 34320 ft | 531 kts | 250° |
| 2026-04-28 11:12 | 49.92841 | -8.26729 | 34315 ft | 530 kts | 250° |
| 2026-04-28 11:13 | 49.89976 | -8.37301 | 34316 ft | 530 kts | 250° |
| 2026-04-28 11:13 | 49.87118 | -8.47852 | 34311 ft | 531 kts | 250° |
| 2026-04-28 11:14 | 49.84240 | -8.58397 | 34307 ft | 531 kts | 250° |
| 2026-04-28 11:14 | 49.81359 | -8.68919 | 34303 ft | 531 kts | 250° |
| 2026-04-28 11:15 | 49.78463 | -8.79446 | 34306 ft | 531 kts | 250° |
| 2026-04-28 11:15 | 49.75567 | -8.89923 | 34301 ft | 530 kts | 250° |
| 2026-04-28 11:16 | 49.72674 | -9.00347 | 34301 ft | 530 kts | 249° |
| 2026-04-28 11:16 | 49.69764 | -9.10776 | 34299 ft | 524 kts | 250° |
| 2026-04-28 11:17 | 49.66874 | -9.21106 | 34318 ft | 525 kts | 250° |
| 2026-04-28 11:17 | 49.65416 | -9.26296 | 34564 ft | 524 kts | 250° |
| 2026-04-28 11:17 | 49.63968 | -9.31436 | 34716 ft | 526 kts | 250° |
| 2026-04-28 11:17 | 49.62501 | -9.36632 | 34888 ft | 527 kts | 250° |
| 2026-04-28 11:18 | 49.61034 | -9.41825 | 35046 ft | 528 kts | 250° |
| 2026-04-28 11:18 | 49.59567 | -9.47000 | 35215 ft | 528 kts | 250° |
| 2026-04-28 11:18 | 49.58094 | -9.52181 | 35433 ft | 528 kts | 249° |
| 2026-04-28 11:18 | 49.56633 | -9.57313 | 35646 ft | 527 kts | 249° |
| 2026-04-28 11:19 | 49.55144 | -9.62537 | 35857 ft | 527 kts | 249° |
| 2026-04-28 11:19 | 49.53684 | -9.67642 | 36063 ft | 526 kts | 249° |
| 2026-04-28 11:19 | 49.52208 | -9.72792 | 36260 ft | 525 kts | 249° |
| 2026-04-28 11:19 | 49.50732 | -9.77933 | 36451 ft | 525 kts | 249° |
| 2026-04-28 11:20 | 49.49261 | -9.83047 | 36643 ft | 524 kts | 249° |
| 2026-04-28 11:20 | 49.47779 | -9.88188 | 36828 ft | 524 kts | 249° |
| 2026-04-28 11:20 | 49.46298 | -9.93311 | 37007 ft | 523 kts | 249° |
| 2026-04-28 11:20 | 49.44822 | -9.98410 | 37176 ft | 523 kts | 249° |
| 2026-04-28 11:21 | 49.43339 | -10.03519 | 37310 ft | 523 kts | 249° |
| 2026-04-28 11:21 | 49.40358 | -10.13758 | 37299 ft | 524 kts | 248° |
| 2026-04-28 11:22 | 49.37384 | -10.23930 | 37296 ft | 522 kts | 248° |
| 2026-04-28 11:22 | 49.34395 | -10.34112 | 37298 ft | 522 kts | 248° |
| 2026-04-28 11:23 | 49.31427 | -10.44177 | 37299 ft | 521 kts | 248° |
| 2026-04-28 11:23 | 49.28418 | -10.54342 | 37299 ft | 520 kts | 248° |
| 2026-04-28 11:24 | 49.25434 | -10.64379 | 37302 ft | 520 kts | 248° |
| 2026-04-28 11:24 | 49.22430 | -10.74443 | 37297 ft | 520 kts | 248° |
| 2026-04-28 11:25 | 49.19418 | -10.84493 | 37299 ft | 519 kts | 247° |
| 2026-04-28 11:25 | 49.16400 | -10.94521 | 37295 ft | 518 kts | 247° |
| 2026-04-28 11:26 | 49.13386 | -11.04493 | 37301 ft | 518 kts | 247° |
| 2026-04-28 11:26 | 49.10355 | -11.14481 | 37293 ft | 518 kts | 247° |
| 2026-04-28 11:27 | 49.07330 | -11.24411 | 37294 ft | 517 kts | 247° |
| 2026-04-28 11:27 | 49.04288 | -11.34354 | 37297 ft | 517 kts | 247° |
| 2026-04-28 11:28 | 49.01238 | -11.44284 | 37297 ft | 517 kts | 246° |
| 2026-04-28 11:28 | 48.98188 | -11.54176 | 37299 ft | 516 kts | 246° |
| 2026-04-28 11:29 | 48.95128 | -11.64060 | 37305 ft | 516 kts | 246° |
| 2026-04-28 11:29 | 48.92063 | -11.73921 | 37301 ft | 515 kts | 246° |
| 2026-04-28 11:30 | 48.88990 | -11.83765 | 37298 ft | 515 kts | 246° |
| 2026-04-28 11:30 | 48.84385 | -11.98446 | 37302 ft | 514 kts | 245° |
| 2026-04-28 11:31 | 48.80707 | -12.07761 | 37309 ft | 516 kts | 238° |
| 2026-04-28 11:31 | 48.76861 | -12.16941 | 37310 ft | 516 kts | 239° |
| 2026-04-28 11:32 | 48.73056 | -12.26139 | 37311 ft | 515 kts | 238° |
| 2026-04-28 11:32 | 48.69857 | -12.33752 | 37307 ft | 514 kts | 238° |
| 2026-04-28 11:33 | 48.66038 | -12.42894 | 37307 ft | 514 kts | 238° |
| 2026-04-28 11:33 | 48.62192 | -12.52023 | 37305 ft | 513 kts | 238° |
| 2026-04-28 11:34 | 48.58383 | -12.61060 | 37302 ft | 513 kts | 238° |
| 2026-04-28 11:34 | 48.54539 | -12.70134 | 37303 ft | 512 kts | 238° |
| 2026-04-28 11:35 | 48.50699 | -12.79176 | 37301 ft | 512 kts | 238° |
| 2026-04-28 11:35 | 48.46967 | -12.87932 | 37301 ft | 512 kts | 238° |
| 2026-04-28 11:36 | 48.43113 | -12.96945 | 37292 ft | 512 kts | 238° |
| 2026-04-28 11:36 | 48.39230 | -13.05996 | 37293 ft | 512 kts | 237° |
| 2026-04-28 11:37 | 48.35364 | -13.14974 | 37294 ft | 511 kts | 237° |
| 2026-04-28 11:37 | 48.31517 | -13.23882 | 37288 ft | 511 kts | 237° |
| 2026-04-28 11:38 | 48.27638 | -13.32834 | 37288 ft | 511 kts | 237° |
| 2026-04-28 11:38 | 48.23729 | -13.41824 | 37287 ft | 511 kts | 237° |
| 2026-04-28 11:39 | 48.19842 | -13.50735 | 37283 ft | 511 kts | 237° |
| 2026-04-28 11:39 | 48.15972 | -13.59577 | 37287 ft | 510 kts | 237° |
| 2026-04-28 11:40 | 48.12068 | -13.68469 | 37285 ft | 510 kts | 237° |
| 2026-04-28 11:40 | 48.08182 | -13.77289 | 37284 ft | 510 kts | 237° |
| 2026-04-28 11:41 | 48.04254 | -13.86178 | 37285 ft | 510 kts | 236° |
| 2026-04-28 11:41 | 48.00361 | -13.94957 | 37281 ft | 511 kts | 236° |
| 2026-04-28 11:42 | 47.96429 | -14.03798 | 37282 ft | 511 kts | 236° |
| 2026-04-28 11:42 | 47.92495 | -14.12611 | 37279 ft | 511 kts | 236° |
| 2026-04-28 11:43 | 47.88548 | -14.21429 | 37284 ft | 511 kts | 236° |
| 2026-04-28 11:43 | 47.84593 | -14.30233 | 37282 ft | 512 kts | 236° |
| 2026-04-28 11:44 | 47.80617 | -14.39056 | 37284 ft | 512 kts | 236° |
| 2026-04-28 11:44 | 47.76667 | -14.47794 | 37281 ft | 512 kts | 236° |
| 2026-04-28 11:45 | 47.72693 | -14.56556 | 37276 ft | 511 kts | 236° |
| 2026-04-28 11:45 | 47.68717 | -14.65294 | 37273 ft | 511 kts | 236° |
| 2026-04-28 11:46 | 47.64742 | -14.74002 | 37270 ft | 510 kts | 236° |
| 2026-04-28 11:46 | 47.60745 | -14.82731 | 37272 ft | 510 kts | 235° |
| 2026-04-28 11:47 | 47.56780 | -14.91364 | 37268 ft | 510 kts | 235° |
| 2026-04-28 11:47 | 47.52743 | -15.00124 | 37273 ft | 510 kts | 235° |
| 2026-04-28 11:48 | 47.48755 | -15.08751 | 37267 ft | 510 kts | 235° |
| 2026-04-28 11:48 | 47.44760 | -15.17366 | 37268 ft | 510 kts | 235° |
| 2026-04-28 11:49 | 47.40729 | -15.26033 | 37264 ft | 510 kts | 235° |
| 2026-04-28 11:49 | 47.36710 | -15.34645 | 37268 ft | 510 kts | 235° |
| 2026-04-28 11:50 | 47.32660 | -15.43297 | 37263 ft | 511 kts | 235° |
| 2026-04-28 11:50 | 47.28619 | -15.51903 | 37261 ft | 510 kts | 234° |
| 2026-04-28 11:51 | 47.24601 | -15.60432 | 37261 ft | 510 kts | 234° |
| 2026-04-28 11:51 | 47.20546 | -15.69014 | 37260 ft | 509 kts | 234° |
| 2026-04-28 11:52 | 47.16499 | -15.77552 | 37257 ft | 509 kts | 234° |
| 2026-04-28 11:52 | 47.12444 | -15.86082 | 37261 ft | 509 kts | 234° |
| 2026-04-28 11:53 | 47.08403 | -15.94556 | 37258 ft | 509 kts | 234° |
| 2026-04-28 11:53 | 47.04310 | -16.03111 | 37259 ft | 508 kts | 234° |
| 2026-04-28 11:54 | 47.00240 | -16.11593 | 37253 ft | 509 kts | 234° |
| 2026-04-28 11:54 | 46.96189 | -16.20011 | 37256 ft | 509 kts | 234° |
| 2026-04-28 11:55 | 46.92117 | -16.28445 | 37257 ft | 508 kts | 234° |
| 2026-04-28 11:55 | 46.88028 | -16.36889 | 37251 ft | 508 kts | 234° |
| 2026-04-28 11:56 | 46.83935 | -16.45315 | 37256 ft | 508 kts | 234° |
| 2026-04-28 11:56 | 46.79829 | -16.53742 | 37251 ft | 508 kts | 234° |
| 2026-04-28 11:57 | 46.75728 | -16.62136 | 37253 ft | 508 kts | 234° |
| 2026-04-28 11:57 | 46.71642 | -16.70471 | 37247 ft | 508 kts | 234° |
| 2026-04-28 11:58 | 46.67531 | -16.78834 | 37266 ft | 508 kts | 234° |
| 2026-04-28 11:58 | 46.63404 | -16.87204 | 37265 ft | 508 kts | 233° |
| 2026-04-28 11:59 | 46.59266 | -16.95569 | 37266 ft | 508 kts | 233° |
| 2026-04-28 11:59 | 46.55143 | -17.03881 | 37258 ft | 506 kts | 233° |
| 2026-04-28 12:00 | 46.51028 | -17.12152 | 37260 ft | 505 kts | 233° |
| 2026-04-28 12:00 | 46.46914 | -17.20395 | 37258 ft | 505 kts | 233° |
| 2026-04-28 12:01 | 46.42794 | -17.28627 | 37258 ft | 504 kts | 233° |
| 2026-04-28 12:01 | 46.38672 | -17.36839 | 37252 ft | 503 kts | 233° |
| 2026-04-28 12:02 | 46.34560 | -17.45008 | 37247 ft | 502 kts | 233° |
| 2026-04-28 12:02 | 46.30455 | -17.53138 | 37246 ft | 502 kts | 233° |
| 2026-04-28 12:03 | 46.26312 | -17.61320 | 37244 ft | 502 kts | 233° |
| 2026-04-28 12:03 | 46.22184 | -17.69447 | 37249 ft | 502 kts | 233° |
| 2026-04-28 12:04 | 46.18088 | -17.77489 | 37250 ft | 501 kts | 234° |
| 2026-04-28 12:04 | 46.13953 | -17.85586 | 37247 ft | 499 kts | 234° |
| 2026-04-28 12:05 | 46.09831 | -17.93632 | 37244 ft | 498 kts | 234° |
| 2026-04-28 12:05 | 46.05717 | -18.01640 | 37239 ft | 497 kts | 234° |
| 2026-04-28 12:06 | 46.01603 | -18.09627 | 37236 ft | 498 kts | 234° |
| 2026-04-28 12:06 | 45.97468 | -18.17630 | 37238 ft | 498 kts | 234° |
| 2026-04-28 12:07 | 45.93328 | -18.25618 | 37235 ft | 498 kts | 234° |
| 2026-04-28 12:07 | 45.89208 | -18.33549 | 37239 ft | 497 kts | 234° |
| 2026-04-28 12:08 | 45.85067 | -18.41497 | 37240 ft | 497 kts | 234° |
| 2026-04-28 12:08 | 45.80899 | -18.49473 | 37240 ft | 498 kts | 234° |
| 2026-04-28 12:09 | 45.76759 | -18.57374 | 37239 ft | 499 kts | 234° |
| 2026-04-28 12:09 | 45.72576 | -18.65333 | 37240 ft | 499 kts | 234° |
| 2026-04-28 12:10 | 45.68405 | -18.73249 | 37233 ft | 498 kts | 234° |
| 2026-04-28 12:10 | 45.64228 | -18.81153 | 37240 ft | 497 kts | 234° |
| 2026-04-28 12:11 | 45.60085 | -18.88973 | 37236 ft | 496 kts | 234° |
| 2026-04-28 12:11 | 45.55924 | -18.96801 | 37236 ft | 496 kts | 234° |
| 2026-04-28 12:12 | 45.51727 | -19.04677 | 37237 ft | 496 kts | 234° |
| 2026-04-28 12:12 | 45.47544 | -19.12508 | 37230 ft | 495 kts | 234° |
| 2026-04-28 12:13 | 45.43377 | -19.20283 | 37233 ft | 494 kts | 234° |
| 2026-04-28 12:13 | 45.39217 | -19.28027 | 37233 ft | 493 kts | 234° |
| 2026-04-28 12:14 | 45.35058 | -19.35746 | 37235 ft | 493 kts | 234° |
| 2026-04-28 12:14 | 45.30879 | -19.43483 | 37232 ft | 493 kts | 234° |
| 2026-04-28 12:15 | 45.26687 | -19.51220 | 37232 ft | 492 kts | 234° |
| 2026-04-28 12:15 | 45.22517 | -19.58897 | 37232 ft | 491 kts | 234° |
| 2026-04-28 12:16 | 45.18366 | -19.66520 | 37232 ft | 491 kts | 234° |
| 2026-04-28 12:16 | 45.14187 | -19.74172 | 37228 ft | 490 kts | 234° |
| 2026-04-28 12:17 | 45.10017 | -19.81788 | 37231 ft | 490 kts | 234° |
| 2026-04-28 12:17 | 45.05831 | -19.89412 | 37236 ft | 489 kts | 234° |
| 2026-04-28 12:18 | 45.01659 | -19.96991 | 37228 ft | 489 kts | 234° |
| 2026-04-28 12:18 | 44.97350 | -20.04439 | 37230 ft | 488 kts | 232° |
| 2026-04-28 12:19 | 44.93087 | -20.11819 | 37231 ft | 488 kts | 232° |
| 2026-04-28 12:19 | 44.88693 | -20.19201 | 37230 ft | 487 kts | 232° |
| 2026-04-28 12:20 | 44.84384 | -20.26538 | 37230 ft | 486 kts | 232° |
| 2026-04-28 12:20 | 44.80067 | -20.33803 | 37233 ft | 485 kts | 232° |
| 2026-04-28 12:21 | 44.75747 | -20.41089 | 37235 ft | 484 kts | 232° |
| 2026-04-28 12:21 | 44.71441 | -20.48317 | 37225 ft | 482 kts | 232° |
| 2026-04-28 12:22 | 44.67871 | -20.54301 | 37231 ft | 481 kts | 232° |
| 2026-04-28 12:22 | 44.63559 | -20.61511 | 37222 ft | 480 kts | 232° |
| 2026-04-28 12:23 | 44.58552 | -20.69860 | 37217 ft | 479 kts | 232° |
| 2026-04-28 12:23 | 44.54993 | -20.75778 | 37217 ft | 477 kts | 232° |
| 2026-04-28 12:24 | 44.50677 | -20.82939 | 37220 ft | 476 kts | 232° |
| 2026-04-28 12:24 | 44.46412 | -20.90000 | 37213 ft | 475 kts | 232° |
| 2026-04-28 12:25 | 44.42177 | -20.96992 | 37214 ft | 474 kts | 232° |
| 2026-04-28 12:25 | 44.37917 | -21.04008 | 37213 ft | 472 kts | 231° |
| 2026-04-28 12:26 | 44.33650 | -21.11019 | 37216 ft | 471 kts | 231° |
| 2026-04-28 12:26 | 44.29407 | -21.17974 | 37212 ft | 470 kts | 231° |
| 2026-04-28 12:27 | 44.25160 | -21.24918 | 37214 ft | 470 kts | 231° |
| 2026-04-28 12:27 | 44.20921 | -21.31830 | 37211 ft | 468 kts | 231° |
| 2026-04-28 12:28 | 44.16689 | -21.38717 | 37213 ft | 467 kts | 231° |
| 2026-04-28 12:28 | 44.12476 | -21.45555 | 37204 ft | 467 kts | 231° |
| 2026-04-28 12:29 | 44.06133 | -21.55820 | 37212 ft | 466 kts | 231° |
| 2026-04-28 12:30 | 44.01905 | -21.62641 | 37209 ft | 465 kts | 231° |
| 2026-04-28 12:30 | 43.97677 | -21.69448 | 37201 ft | 465 kts | 231° |
| 2026-04-28 12:31 | 43.93449 | -21.76237 | 37196 ft | 464 kts | 231° |
| 2026-04-28 12:31 | 43.89236 | -21.82986 | 37203 ft | 463 kts | 231° |
| 2026-04-28 12:32 | 43.85028 | -21.89713 | 37197 ft | 463 kts | 231° |
| 2026-04-28 12:32 | 43.80810 | -21.96438 | 37193 ft | 462 kts | 230° |
| 2026-04-28 12:33 | 43.76594 | -22.03144 | 37202 ft | 461 kts | 230° |
| 2026-04-28 12:33 | 43.72375 | -22.09840 | 37194 ft | 461 kts | 230° |
| 2026-04-28 12:34 | 43.68185 | -22.16475 | 37198 ft | 460 kts | 230° |
| 2026-04-28 12:34 | 43.63948 | -22.23168 | 37202 ft | 459 kts | 230° |
| 2026-04-28 12:35 | 43.59765 | -22.29760 | 37194 ft | 458 kts | 230° |
| 2026-04-28 12:35 | 43.55572 | -22.36354 | 37192 ft | 457 kts | 230° |
| 2026-04-28 12:36 | 43.51372 | -22.42942 | 37188 ft | 457 kts | 230° |
| 2026-04-28 12:36 | 43.47207 | -22.49462 | 37185 ft | 455 kts | 230° |
| 2026-04-28 12:37 | 43.43009 | -22.56019 | 37184 ft | 455 kts | 230° |
| 2026-04-28 12:37 | 43.38821 | -22.62543 | 37185 ft | 454 kts | 230° |
| 2026-04-28 12:38 | 43.34650 | -22.69028 | 37181 ft | 453 kts | 229° |
| 2026-04-28 12:38 | 43.30473 | -22.75507 | 37487 ft | 452 kts | 229° |
| 2026-04-28 12:38 | 43.28356 | -22.78786 | 37748 ft | 450 kts | 229° |
| 2026-04-28 12:39 | 43.26285 | -22.81989 | 37951 ft | 449 kts | 229° |
| 2026-04-28 12:39 | 43.24237 | -22.85153 | 38170 ft | 447 kts | 229° |
| 2026-04-28 12:39 | 43.22178 | -22.88330 | 38356 ft | 446 kts | 229° |
| 2026-04-28 12:39 | 43.20114 | -22.91512 | 38559 ft | 444 kts | 229° |
| 2026-04-28 12:40 | 43.18068 | -22.94663 | 38759 ft | 443 kts | 229° |
| 2026-04-28 12:40 | 43.16016 | -22.97819 | 38910 ft | 442 kts | 229° |
| 2026-04-28 12:40 | 43.13977 | -23.00953 | 38979 ft | 442 kts | 229° |
| 2026-04-28 12:41 | 43.09881 | -23.07237 | 39123 ft | 442 kts | 229° |
| 2026-04-28 12:41 | 43.05783 | -23.13510 | 39256 ft | 443 kts | 229° |
| 2026-04-28 12:42 | 43.01656 | -23.19813 | 39401 ft | 443 kts | 229° |
| 2026-04-28 12:42 | 42.97529 | -23.26103 | 39537 ft | 444 kts | 229° |
| 2026-04-28 12:43 | 42.93434 | -23.32332 | 39675 ft | 445 kts | 229° |
| 2026-04-28 12:43 | 42.89294 | -23.38614 | 39837 ft | 445 kts | 229° |
| 2026-04-28 12:44 | 42.85128 | -23.44922 | 39977 ft | 446 kts | 228° |
| 2026-04-28 12:44 | 42.81078 | -23.51041 | 40135 ft | 447 kts | 228° |
| 2026-04-28 12:45 | 42.76927 | -23.57301 | 40274 ft | 447 kts | 228° |
| 2026-04-28 12:45 | 42.72750 | -23.63585 | 40413 ft | 448 kts | 228° |
| 2026-04-28 12:46 | 42.68566 | -23.69865 | 40575 ft | 449 kts | 228° |
| 2026-04-28 12:46 | 42.64365 | -23.76158 | 40713 ft | 449 kts | 228° |
| 2026-04-28 12:47 | 42.60156 | -23.82450 | 40839 ft | 450 kts | 228° |
| 2026-04-28 12:47 | 42.55930 | -23.88753 | 40983 ft | 451 kts | 228° |
| 2026-04-28 12:48 | 42.51720 | -23.95018 | 41104 ft | 451 kts | 227° |
| 2026-04-28 12:48 | 42.47468 | -24.01332 | 41136 ft | 452 kts | 227° |
| 2026-04-28 12:49 | 42.43264 | -24.07561 | 41127 ft | 450 kts | 227° |
| 2026-04-28 12:49 | 42.39035 | -24.13816 | 41131 ft | 450 kts | 227° |
| 2026-04-28 12:50 | 42.34808 | -24.20052 | 41126 ft | 449 kts | 227° |
| 2026-04-28 12:50 | 42.30580 | -24.26277 | 41125 ft | 450 kts | 227° |
| 2026-04-28 12:51 | 42.26341 | -24.32505 | 41128 ft | 450 kts | 227° |
| 2026-04-28 12:51 | 42.22106 | -24.38714 | 41128 ft | 449 kts | 227° |
| 2026-04-28 12:52 | 42.17979 | -24.44751 | 41122 ft | 449 kts | 227° |
| 2026-04-28 12:52 | 42.13747 | -24.50929 | 41123 ft | 449 kts | 227° |
| 2026-04-28 12:53 | 42.09494 | -24.57125 | 41118 ft | 449 kts | 227° |
| 2026-04-28 12:53 | 42.05253 | -24.63290 | 41115 ft | 448 kts | 227° |
| 2026-04-28 12:54 | 42.01032 | -24.69413 | 41093 ft | 449 kts | 227° |
| 2026-04-28 12:54 | 41.96777 | -24.75572 | 41098 ft | 449 kts | 227° |
| 2026-04-28 12:55 | 41.92526 | -24.81713 | 41094 ft | 448 kts | 227° |
| 2026-04-28 12:55 | 41.88279 | -24.87835 | 41095 ft | 449 kts | 227° |
| 2026-04-28 12:56 | 41.84030 | -24.93947 | 41094 ft | 448 kts | 227° |
| 2026-04-28 12:56 | 41.79781 | -25.00046 | 41094 ft | 447 kts | 227° |
| 2026-04-28 12:57 | 41.75533 | -25.06132 | 41096 ft | 446 kts | 227° |
| 2026-04-28 12:57 | 41.71292 | -25.12194 | 41090 ft | 445 kts | 227° |
| 2026-04-28 12:58 | 41.67062 | -25.18230 | 41088 ft | 445 kts | 227° |
| 2026-04-28 12:58 | 41.62821 | -25.24267 | 41088 ft | 445 kts | 226° |
| 2026-04-28 12:59 | 41.58577 | -25.30296 | 41082 ft | 444 kts | 226° |
| 2026-04-28 12:59 | 41.54371 | -25.36260 | 41078 ft | 443 kts | 226° |
| 2026-04-28 13:00 | 41.50142 | -25.42244 | 41078 ft | 442 kts | 226° |
| 2026-04-28 13:00 | 41.45895 | -25.48241 | 41073 ft | 442 kts | 226° |
| 2026-04-28 13:01 | 41.41701 | -25.54151 | 41070 ft | 441 kts | 226° |
| 2026-04-28 13:01 | 41.37468 | -25.60103 | 41070 ft | 442 kts | 226° |
| 2026-04-28 13:02 | 41.33244 | -25.66032 | 41069 ft | 443 kts | 226° |
| 2026-04-28 13:02 | 41.28977 | -25.72008 | 41063 ft | 443 kts | 226° |
| 2026-04-28 13:03 | 41.24752 | -25.77915 | 41059 ft | 444 kts | 226° |
| 2026-04-28 13:03 | 41.20491 | -25.83858 | 41059 ft | 444 kts | 226° |
| 2026-04-28 13:04 | 41.16218 | -25.89808 | 41049 ft | 444 kts | 226° |
| 2026-04-28 13:04 | 41.11941 | -25.95749 | 41052 ft | 447 kts | 226° |
| 2026-04-28 13:05 | 41.07641 | -26.01713 | 41038 ft | 446 kts | 226° |
| 2026-04-28 13:05 | 41.03372 | -26.07620 | 41045 ft | 446 kts | 226° |
| 2026-04-28 13:06 | 40.99045 | -26.13595 | 41037 ft | 447 kts | 226° |
| 2026-04-28 13:06 | 40.94758 | -26.19504 | 41039 ft | 448 kts | 226° |
| 2026-04-28 13:07 | 40.90432 | -26.25454 | 41042 ft | 448 kts | 226° |
| 2026-04-28 13:07 | 40.86227 | -26.31227 | 41036 ft | 448 kts | 226° |
| 2026-04-28 13:08 | 40.81908 | -26.37143 | 41032 ft | 447 kts | 225° |
| 2026-04-28 13:08 | 40.78312 | -26.42060 | 41032 ft | 448 kts | 225° |
| 2026-04-28 13:09 | 40.73272 | -26.48939 | 41029 ft | 448 kts | 225° |
| 2026-04-28 13:09 | 40.69641 | -26.53885 | 41028 ft | 448 kts | 225° |
| 2026-04-28 13:10 | 40.65306 | -26.59779 | 41026 ft | 448 kts | 225° |
| 2026-04-28 13:10 | 40.60976 | -26.65654 | 41018 ft | 448 kts | 225° |
| 2026-04-28 13:11 | 40.56623 | -26.71548 | 41015 ft | 448 kts | 225° |
| 2026-04-28 13:11 | 40.52305 | -26.77385 | 41013 ft | 448 kts | 225° |
| 2026-04-28 13:12 | 40.47926 | -26.83291 | 41013 ft | 448 kts | 225° |
| 2026-04-28 13:12 | 40.43568 | -26.89158 | 41008 ft | 449 kts | 225° |
| 2026-04-28 13:13 | 40.39213 | -26.95009 | 41006 ft | 450 kts | 225° |
| 2026-04-28 13:13 | 40.34856 | -27.00851 | 41005 ft | 449 kts | 225° |
| 2026-04-28 13:14 | 40.30463 | -27.06729 | 41006 ft | 449 kts | 225° |
| 2026-04-28 13:14 | 40.26112 | -27.12540 | 41003 ft | 449 kts | 225° |
| 2026-04-28 13:15 | 40.21731 | -27.18379 | 41003 ft | 450 kts | 225° |
| 2026-04-28 13:15 | 40.17337 | -27.24225 | 41003 ft | 450 kts | 225° |
| 2026-04-28 13:16 | 40.12935 | -27.30070 | 40996 ft | 451 kts | 225° |
| 2026-04-28 13:16 | 40.08521 | -27.35920 | 40998 ft | 451 kts | 225° |
| 2026-04-28 13:17 | 40.04121 | -27.41738 | 40995 ft | 451 kts | 225° |
| 2026-04-28 13:17 | 39.99740 | -27.47520 | 40992 ft | 451 kts | 225° |
| 2026-04-28 13:18 | 39.95328 | -27.53333 | 40991 ft | 450 kts | 225° |
| 2026-04-28 13:18 | 39.90906 | -27.59147 | 40991 ft | 450 kts | 225° |
| 2026-04-28 13:19 | 39.86491 | -27.64942 | 40993 ft | 451 kts | 225° |
| 2026-04-28 13:19 | 39.82084 | -27.70714 | 40993 ft | 451 kts | 225° |
| 2026-04-28 13:20 | 39.77656 | -27.76502 | 40998 ft | 450 kts | 225° |
| 2026-04-28 13:20 | 39.73261 | -27.82236 | 40997 ft | 450 kts | 225° |
| 2026-04-28 13:21 | 39.68827 | -27.88009 | 40996 ft | 449 kts | 225° |
| 2026-04-28 13:21 | 39.64441 | -27.93709 | 41001 ft | 448 kts | 225° |
| 2026-04-28 13:22 | 39.60030 | -27.99432 | 41000 ft | 448 kts | 225° |
| 2026-04-28 13:22 | 39.55618 | -28.05144 | 40994 ft | 450 kts | 225° |
| 2026-04-28 13:23 | 39.51183 | -28.10875 | 41001 ft | 450 kts | 225° |
| 2026-04-28 13:23 | 39.46745 | -28.16599 | 41002 ft | 450 kts | 225° |
| 2026-04-28 13:24 | 39.42308 | -28.22312 | 40995 ft | 450 kts | 225° |
| 2026-04-28 13:24 | 39.37869 | -28.28014 | 40999 ft | 450 kts | 225° |
| 2026-04-28 13:25 | 39.33461 | -28.33668 | 40999 ft | 449 kts | 225° |
| 2026-04-28 13:25 | 39.29016 | -28.39357 | 41002 ft | 449 kts | 225° |
| 2026-04-28 13:26 | 39.24589 | -28.45014 | 41002 ft | 449 kts | 225° |
| 2026-04-28 13:26 | 39.20148 | -28.50677 | 41000 ft | 448 kts | 225° |
| 2026-04-28 13:27 | 39.15716 | -28.56318 | 41000 ft | 447 kts | 225° |
| 2026-04-28 13:27 | 39.11299 | -28.61930 | 41001 ft | 447 kts | 225° |
| 2026-04-28 13:28 | 39.06871 | -28.67545 | 41001 ft | 447 kts | 225° |
| 2026-04-28 13:28 | 39.02455 | -28.73134 | 41004 ft | 447 kts | 225° |
| 2026-04-28 13:29 | 38.98025 | -28.78731 | 41001 ft | 447 kts | 225° |
| 2026-04-28 13:29 | 38.93583 | -28.84332 | 40999 ft | 447 kts | 225° |
| 2026-04-28 13:30 | 38.89137 | -28.89929 | 41000 ft | 446 kts | 225° |
| 2026-04-28 13:30 | 38.84712 | -28.95488 | 40995 ft | 445 kts | 225° |
| 2026-04-28 13:31 | 38.78062 | -29.03824 | 40998 ft | 446 kts | 225° |
| 2026-04-28 13:31 | 38.73616 | -29.09384 | 40997 ft | 445 kts | 225° |
| 2026-04-28 13:32 | 38.69186 | -29.14914 | 40995 ft | 445 kts | 225° |
| 2026-04-28 13:32 | 38.64768 | -29.20420 | 40993 ft | 445 kts | 225° |
| 2026-04-28 13:33 | 38.60334 | -29.25934 | 40994 ft | 445 kts | 225° |
| 2026-04-28 13:33 | 38.55895 | -29.31445 | 40991 ft | 445 kts | 225° |
| 2026-04-28 13:34 | 38.51446 | -29.36960 | 40992 ft | 445 kts | 225° |
| 2026-04-28 13:34 | 38.47022 | -29.42432 | 40995 ft | 445 kts | 225° |
| 2026-04-28 13:35 | 38.42567 | -29.47933 | 40996 ft | 446 kts | 225° |
| 2026-04-28 13:35 | 38.38102 | -29.53436 | 40999 ft | 446 kts | 225° |
| 2026-04-28 13:36 | 38.33639 | -29.58928 | 40995 ft | 445 kts | 225° |
| 2026-04-28 13:36 | 38.29182 | -29.64401 | 40991 ft | 445 kts | 225° |
| 2026-04-28 13:37 | 38.24735 | -29.69853 | 40985 ft | 444 kts | 225° |
| 2026-04-28 13:37 | 38.20286 | -29.75297 | 40987 ft | 445 kts | 225° |
| 2026-04-28 13:38 | 38.15825 | -29.80747 | 40986 ft | 444 kts | 225° |
| 2026-04-28 13:38 | 38.11363 | -29.86187 | 40985 ft | 443 kts | 225° |
| 2026-04-28 13:39 | 38.06912 | -29.91604 | 40981 ft | 443 kts | 225° |
| 2026-04-28 13:39 | 38.02461 | -29.97012 | 40981 ft | 443 kts | 225° |
| 2026-04-28 13:40 | 37.97925 | -30.02263 | 40986 ft | 443 kts | 222° |
| 2026-04-28 13:40 | 37.93244 | -30.07342 | 40989 ft | 444 kts | 222° |
| 2026-04-28 13:41 | 37.88557 | -30.12434 | 40988 ft | 444 kts | 222° |
| 2026-04-28 13:41 | 37.83860 | -30.17518 | 40987 ft | 443 kts | 222° |
| 2026-04-28 13:42 | 37.79163 | -30.22601 | 40986 ft | 444 kts | 222° |
| 2026-04-28 13:42 | 37.74454 | -30.27683 | 40991 ft | 445 kts | 222° |
| 2026-04-28 13:43 | 37.69747 | -30.32755 | 40993 ft | 445 kts | 222° |
| 2026-04-28 13:43 | 37.65055 | -30.37803 | 40992 ft | 445 kts | 223° |
| 2026-04-28 13:44 | 37.60333 | -30.42874 | 40991 ft | 445 kts | 223° |
| 2026-04-28 13:44 | 37.55607 | -30.47940 | 40991 ft | 445 kts | 223° |
| 2026-04-28 13:45 | 37.50913 | -30.52964 | 40992 ft | 445 kts | 223° |
| 2026-04-28 13:45 | 37.46202 | -30.57997 | 40989 ft | 444 kts | 223° |
| 2026-04-28 13:46 | 37.41485 | -30.63028 | 40985 ft | 444 kts | 223° |
| 2026-04-28 13:46 | 37.36770 | -30.68048 | 40985 ft | 444 kts | 223° |
| 2026-04-28 13:47 | 37.32042 | -30.73073 | 40983 ft | 444 kts | 223° |
| 2026-04-28 13:47 | 37.27326 | -30.78078 | 40990 ft | 445 kts | 223° |
| 2026-04-28 13:48 | 37.22612 | -30.83071 | 40988 ft | 444 kts | 223° |
| 2026-04-28 13:48 | 37.17889 | -30.88066 | 40984 ft | 444 kts | 223° |
| 2026-04-28 13:49 | 37.13164 | -30.93054 | 40980 ft | 444 kts | 223° |
| 2026-04-28 13:49 | 37.08431 | -30.98043 | 40981 ft | 444 kts | 223° |
| 2026-04-28 13:50 | 37.03683 | -31.03039 | 40983 ft | 444 kts | 223° |
| 2026-04-28 13:50 | 36.98979 | -31.07979 | 40982 ft | 444 kts | 223° |
| 2026-04-28 13:51 | 36.94251 | -31.12938 | 40985 ft | 443 kts | 223° |
| 2026-04-28 13:51 | 36.89528 | -31.17881 | 40986 ft | 443 kts | 223° |
| 2026-04-28 13:52 | 36.84798 | -31.22826 | 40984 ft | 444 kts | 223° |
| 2026-04-28 13:52 | 36.80058 | -31.27771 | 40986 ft | 444 kts | 223° |
| 2026-04-28 13:53 | 36.75301 | -31.32725 | 40984 ft | 444 kts | 223° |
| 2026-04-28 13:53 | 36.70582 | -31.37633 | 40990 ft | 444 kts | 223° |
| 2026-04-28 13:54 | 36.65812 | -31.42585 | 40990 ft | 445 kts | 223° |
| 2026-04-28 13:54 | 36.61067 | -31.47503 | 40996 ft | 446 kts | 223° |
| 2026-04-28 13:55 | 36.56297 | -31.52439 | 40987 ft | 446 kts | 223° |
| 2026-04-28 13:55 | 36.51522 | -31.57371 | 40989 ft | 445 kts | 223° |
| 2026-04-28 13:56 | 36.46762 | -31.62281 | 41010 ft | 445 kts | 223° |
| 2026-04-28 13:56 | 36.42793 | -31.66367 | 41008 ft | 446 kts | 223° |
| 2026-04-28 13:57 | 36.40387 | -31.68846 | 40733 ft | 447 kts | 218° |
| 2026-04-28 13:57 | 36.37998 | -31.71301 | 40818 ft | 448 kts | 219° |
| 2026-04-28 13:57 | 36.33189 | -31.76233 | 40995 ft | 452 kts | 219° |
| 2026-04-28 13:58 | 36.28312 | -31.81234 | 40998 ft | 460 kts | 219° |
| 2026-04-28 13:58 | 36.23334 | -31.86324 | 41015 ft | 468 kts | 219° |
| 2026-04-28 13:59 | 36.18250 | -31.91517 | 41015 ft | 476 kts | 219° |
| 2026-04-28 13:59 | 36.13086 | -31.96781 | 41012 ft | 484 kts | 219° |
| 2026-04-28 14:00 | 36.07844 | -32.02116 | 41009 ft | 491 kts | 219° |
| 2026-04-28 14:00 | 36.02560 | -32.07484 | 41009 ft | 492 kts | 219° |
| 2026-04-28 14:01 | 35.97303 | -32.12815 | 41011 ft | 492 kts | 219° |
| 2026-04-28 14:01 | 35.92015 | -32.18168 | 41009 ft | 492 kts | 219° |
| 2026-04-28 14:02 | 35.86716 | -32.23522 | 41007 ft | 492 kts | 219° |
| 2026-04-28 14:02 | 35.81401 | -32.28882 | 41010 ft | 492 kts | 219° |
| 2026-04-28 14:03 | 35.76107 | -32.34213 | 41009 ft | 492 kts | 219° |
| 2026-04-28 14:03 | 35.70804 | -32.39543 | 41008 ft | 492 kts | 219° |
| 2026-04-28 14:04 | 35.65498 | -32.44866 | 41010 ft | 492 kts | 219° |
| 2026-04-28 14:04 | 35.60228 | -32.50144 | 41009 ft | 492 kts | 219° |
| 2026-04-28 14:05 | 35.54918 | -32.55452 | 41011 ft | 492 kts | 219° |
| 2026-04-28 14:05 | 35.49623 | -32.60737 | 41010 ft | 491 kts | 219° |
| 2026-04-28 14:06 | 35.44305 | -32.66035 | 41009 ft | 491 kts | 219° |
| 2026-04-28 14:06 | 35.38995 | -32.71315 | 41011 ft | 491 kts | 219° |
| 2026-04-28 14:07 | 35.33678 | -32.76593 | 41009 ft | 491 kts | 219° |
| 2026-04-28 14:07 | 35.28356 | -32.81868 | 41008 ft | 491 kts | 219° |
| 2026-04-28 14:08 | 35.23070 | -32.87097 | 41009 ft | 491 kts | 219° |
| 2026-04-28 14:08 | 35.17764 | -32.92338 | 41008 ft | 491 kts | 219° |
| 2026-04-28 14:09 | 35.12431 | -32.97595 | 41008 ft | 491 kts | 219° |
| 2026-04-28 14:09 | 35.07106 | -33.02836 | 41008 ft | 491 kts | 219° |
| 2026-04-28 14:10 | 35.01787 | -33.08062 | 41008 ft | 491 kts | 219° |
| 2026-04-28 14:10 | 34.96454 | -33.13291 | 41009 ft | 491 kts | 219° |
| 2026-04-28 14:11 | 34.91163 | -33.18472 | 41009 ft | 491 kts | 219° |
| 2026-04-28 14:11 | 34.85829 | -33.23685 | 41010 ft | 491 kts | 219° |
| 2026-04-28 14:12 | 34.80497 | -33.28888 | 41011 ft | 491 kts | 219° |
| 2026-04-28 14:12 | 34.75157 | -33.34090 | 41008 ft | 491 kts | 219° |
| 2026-04-28 14:13 | 34.69828 | -33.39272 | 41010 ft | 491 kts | 219° |
| 2026-04-28 14:13 | 34.64522 | -33.44410 | 41124 ft | 474 kts | 223° |
| 2026-04-28 14:14 | 34.61998 | -33.46858 | 41026 ft | 462 kts | 223° |
| 2026-04-28 14:14 | 34.59501 | -33.49286 | 41002 ft | 448 kts | 224° |
| 2026-04-28 14:14 | 34.57129 | -33.51582 | 40992 ft | 435 kts | 224° |
| 2026-04-28 14:14 | 34.54779 | -33.53853 | 40998 ft | 430 kts | 224° |
| 2026-04-28 14:15 | 34.50070 | -33.58414 | 41018 ft | 436 kts | 224° |
| 2026-04-28 14:15 | 34.45292 | -33.63017 | 41020 ft | 442 kts | 224° |
| 2026-04-28 14:16 | 34.40451 | -33.67683 | 41035 ft | 446 kts | 223° |
| 2026-04-28 14:16 | 34.35597 | -33.72350 | 41036 ft | 447 kts | 224° |
| 2026-04-28 14:17 | 34.30728 | -33.77027 | 41039 ft | 447 kts | 224° |
| 2026-04-28 14:17 | 34.25851 | -33.81703 | 41035 ft | 447 kts | 223° |
| 2026-04-28 14:18 | 34.20978 | -33.86369 | 41030 ft | 446 kts | 223° |
| 2026-04-28 14:18 | 34.16105 | -33.91027 | 41029 ft | 447 kts | 223° |
| 2026-04-28 14:19 | 34.11242 | -33.95670 | 41029 ft | 448 kts | 223° |
| 2026-04-28 14:19 | 34.06345 | -34.00337 | 41034 ft | 449 kts | 223° |
| 2026-04-28 14:20 | 34.01443 | -34.05002 | 41037 ft | 450 kts | 223° |
| 2026-04-28 14:20 | 33.96522 | -34.09678 | 41035 ft | 449 kts | 223° |
| 2026-04-28 14:21 | 33.91613 | -34.14335 | 41032 ft | 449 kts | 223° |
| 2026-04-28 14:21 | 33.86706 | -34.18985 | 41034 ft | 448 kts | 223° |
| 2026-04-28 14:22 | 33.81835 | -34.23593 | 41036 ft | 449 kts | 223° |
| 2026-04-28 14:22 | 33.76923 | -34.28232 | 41039 ft | 450 kts | 223° |
| 2026-04-28 14:23 | 33.71985 | -34.32890 | 41038 ft | 451 kts | 223° |
| 2026-04-28 14:23 | 33.67045 | -34.37542 | 41041 ft | 452 kts | 223° |
| 2026-04-28 14:24 | 33.62096 | -34.42195 | 41038 ft | 452 kts | 223° |
| 2026-04-28 14:24 | 33.57152 | -34.46837 | 41046 ft | 451 kts | 223° |
| 2026-04-28 14:25 | 33.52198 | -34.51481 | 41040 ft | 450 kts | 223° |
| 2026-04-28 14:25 | 33.47293 | -34.56072 | 41044 ft | 450 kts | 223° |
| 2026-04-28 14:26 | 33.42351 | -34.60692 | 41050 ft | 450 kts | 223° |
| 2026-04-28 14:26 | 33.37395 | -34.65317 | 41052 ft | 452 kts | 223° |
| 2026-04-28 14:27 | 33.32439 | -34.69936 | 41053 ft | 453 kts | 223° |
| 2026-04-28 14:27 | 33.27456 | -34.74573 | 41057 ft | 453 kts | 223° |
| 2026-04-28 14:28 | 33.22478 | -34.79198 | 41054 ft | 452 kts | 223° |
| 2026-04-28 14:28 | 33.17526 | -34.83793 | 41056 ft | 451 kts | 223° |
| 2026-04-28 14:29 | 33.12594 | -34.88362 | 41059 ft | 450 kts | 223° |
| 2026-04-28 14:29 | 33.07642 | -34.92943 | 41062 ft | 451 kts | 223° |
| 2026-04-28 14:30 | 33.02677 | -34.97529 | 41078 ft | 452 kts | 223° |
| 2026-04-28 14:30 | 32.97856 | -35.02314 | 41079 ft | 450 kts | 227° |
| 2026-04-28 14:31 | 32.93196 | -35.07303 | 41078 ft | 450 kts | 227° |
| 2026-04-28 14:31 | 32.88577 | -35.12261 | 41076 ft | 448 kts | 227° |
| 2026-04-28 14:32 | 32.83922 | -35.17244 | 41068 ft | 447 kts | 227° |
| 2026-04-28 14:32 | 32.79313 | -35.22171 | 41070 ft | 447 kts | 227° |
| 2026-04-28 14:33 | 32.74688 | -35.27110 | 41073 ft | 448 kts | 227° |
| 2026-04-28 14:33 | 32.70054 | -35.32049 | 41074 ft | 449 kts | 227° |
| 2026-04-28 14:34 | 32.63074 | -35.39477 | 41075 ft | 449 kts | 227° |
| 2026-04-28 14:35 | 32.58409 | -35.44432 | 41077 ft | 449 kts | 227° |
| 2026-04-28 14:35 | 32.53744 | -35.49379 | 41077 ft | 450 kts | 227° |
| 2026-04-28 14:36 | 32.49110 | -35.54287 | 41084 ft | 449 kts | 227° |
| 2026-04-28 14:36 | 32.44452 | -35.59212 | 41083 ft | 448 kts | 227° |
| 2026-04-28 14:37 | 32.39807 | -35.64117 | 41084 ft | 447 kts | 227° |
| 2026-04-28 14:37 | 32.35172 | -35.69005 | 41084 ft | 447 kts | 227° |
| 2026-04-28 14:38 | 32.30532 | -35.73891 | 41083 ft | 447 kts | 227° |
| 2026-04-28 14:38 | 32.25896 | -35.78765 | 41084 ft | 448 kts | 227° |
| 2026-04-28 14:39 | 32.21230 | -35.83664 | 41087 ft | 449 kts | 227° |
| 2026-04-28 14:39 | 32.16557 | -35.88563 | 41088 ft | 449 kts | 227° |
| 2026-04-28 14:40 | 32.11897 | -35.93443 | 41093 ft | 448 kts | 227° |
| 2026-04-28 14:40 | 32.07232 | -35.98319 | 41098 ft | 447 kts | 227° |
| 2026-04-28 14:41 | 32.02612 | -36.03144 | 41088 ft | 447 kts | 227° |
| 2026-04-28 14:41 | 31.97925 | -36.08030 | 41107 ft | 448 kts | 227° |
| 2026-04-28 14:42 | 31.93276 | -36.12869 | 41102 ft | 448 kts | 227° |
| 2026-04-28 14:42 | 31.88603 | -36.17727 | 41097 ft | 448 kts | 227° |
| 2026-04-28 14:43 | 31.83939 | -36.22569 | 41098 ft | 447 kts | 227° |
| 2026-04-28 14:43 | 31.79273 | -36.27406 | 41103 ft | 447 kts | 227° |
| 2026-04-28 14:44 | 31.75399 | -36.31417 | 41101 ft | 448 kts | 227° |
| 2026-04-28 14:44 | 31.69945 | -36.37056 | 41103 ft | 449 kts | 227° |
| 2026-04-28 14:45 | 31.65252 | -36.41900 | 41103 ft | 450 kts | 227° |
| 2026-04-28 14:45 | 31.60547 | -36.46751 | 41108 ft | 449 kts | 227° |
| 2026-04-28 14:46 | 31.56633 | -36.50781 | 41108 ft | 449 kts | 227° |
| 2026-04-28 14:46 | 31.51954 | -36.55591 | 41108 ft | 448 kts | 227° |
| 2026-04-28 14:47 | 31.47272 | -36.60400 | 41111 ft | 447 kts | 227° |
| 2026-04-28 14:47 | 31.42575 | -36.65216 | 41112 ft | 448 kts | 227° |
| 2026-04-28 14:48 | 31.37895 | -36.70008 | 41109 ft | 449 kts | 227° |
| 2026-04-28 14:48 | 31.33192 | -36.74817 | 41107 ft | 448 kts | 227° |
| 2026-04-28 14:49 | 31.28492 | -36.79616 | 41108 ft | 448 kts | 227° |
| 2026-04-28 14:49 | 31.23826 | -36.84375 | 41117 ft | 448 kts | 227° |
| 2026-04-28 14:50 | 31.19104 | -36.89184 | 41116 ft | 448 kts | 227° |
| 2026-04-28 14:50 | 31.14420 | -36.93947 | 41115 ft | 449 kts | 227° |
| 2026-04-28 14:51 | 31.09709 | -36.98731 | 41118 ft | 448 kts | 227° |
| 2026-04-28 14:51 | 31.05003 | -37.03505 | 41120 ft | 448 kts | 227° |
| 2026-04-28 14:52 | 31.00309 | -37.08258 | 41124 ft | 447 kts | 227° |
| 2026-04-28 14:52 | 30.95607 | -37.13014 | 41122 ft | 447 kts | 227° |
| 2026-04-28 14:53 | 30.90902 | -37.17767 | 41123 ft | 448 kts | 227° |
| 2026-04-28 14:53 | 30.86180 | -37.22530 | 41120 ft | 449 kts | 227° |
| 2026-04-28 14:54 | 30.81457 | -37.27288 | 41129 ft | 449 kts | 227° |
| 2026-04-28 14:54 | 30.76728 | -37.32044 | 41121 ft | 449 kts | 227° |
| 2026-04-28 14:55 | 30.72009 | -37.36785 | 41121 ft | 448 kts | 227° |
| 2026-04-28 14:55 | 30.67327 | -37.41483 | 41124 ft | 447 kts | 227° |
| 2026-04-28 14:56 | 30.62612 | -37.46207 | 41122 ft | 447 kts | 227° |
| 2026-04-28 14:56 | 30.57904 | -37.50918 | 41126 ft | 448 kts | 227° |
| 2026-04-28 14:57 | 30.53182 | -37.55637 | 41127 ft | 448 kts | 227° |
| 2026-04-28 14:57 | 30.48450 | -37.60359 | 41131 ft | 449 kts | 227° |
| 2026-04-28 14:58 | 30.43698 | -37.65095 | 41129 ft | 449 kts | 227° |
| 2026-04-28 14:58 | 30.38966 | -37.69804 | 41151 ft | 447 kts | 227° |
| 2026-04-28 14:59 | 30.34269 | -37.74473 | 41144 ft | 447 kts | 227° |
| 2026-04-28 14:59 | 30.29526 | -37.79182 | 41141 ft | 447 kts | 227° |
| 2026-04-28 15:00 | 30.24805 | -37.83861 | 41136 ft | 448 kts | 227° |
| 2026-04-28 15:00 | 30.20092 | -37.88528 | 41136 ft | 448 kts | 227° |
| 2026-04-28 15:01 | 30.15341 | -37.93226 | 41132 ft | 449 kts | 227° |
| 2026-04-28 15:01 | 30.10585 | -37.97922 | 41138 ft | 449 kts | 227° |
| 2026-04-28 15:02 | 30.05844 | -38.02596 | 41133 ft | 447 kts | 227° |
| 2026-04-28 15:02 | 30.01113 | -38.07256 | 41139 ft | 447 kts | 228° |
| 2026-04-28 15:03 | 29.96408 | -38.11884 | 41137 ft | 447 kts | 228° |
| 2026-04-28 15:03 | 29.91668 | -38.16540 | 41139 ft | 448 kts | 228° |
| 2026-04-28 15:04 | 29.86927 | -38.21191 | 41139 ft | 448 kts | 228° |
| 2026-04-28 15:04 | 29.82169 | -38.25855 | 41154 ft | 450 kts | 228° |
| 2026-04-28 15:05 | 29.77388 | -38.30531 | 41147 ft | 451 kts | 228° |
| 2026-04-28 15:05 | 29.72591 | -38.35219 | 41146 ft | 451 kts | 229° |
| 2026-04-28 15:06 | 29.67817 | -38.39878 | 41143 ft | 450 kts | 229° |
| 2026-04-28 15:06 | 29.63077 | -38.44499 | 41142 ft | 449 kts | 229° |
| 2026-04-28 15:07 | 29.58326 | -38.49124 | 41152 ft | 447 kts | 229° |
| 2026-04-28 15:07 | 29.53590 | -38.53728 | 41157 ft | 445 kts | 228° |
| 2026-04-28 15:08 | 29.48871 | -38.58311 | 41148 ft | 444 kts | 228° |
| 2026-04-28 15:08 | 29.44140 | -38.62898 | 41150 ft | 444 kts | 229° |
| 2026-04-28 15:09 | 29.39410 | -38.67480 | 41152 ft | 445 kts | 229° |
| 2026-04-28 15:09 | 29.34670 | -38.72065 | 41147 ft | 446 kts | 229° |
| 2026-04-28 15:10 | 29.29926 | -38.76647 | 41151 ft | 445 kts | 229° |
| 2026-04-28 15:10 | 29.25211 | -38.81197 | 41155 ft | 444 kts | 229° |
| 2026-04-28 15:11 | 29.20470 | -38.85767 | 41150 ft | 444 kts | 229° |
| 2026-04-28 15:11 | 29.15735 | -38.90324 | 41156 ft | 444 kts | 229° |
| 2026-04-28 15:12 | 29.11011 | -38.94864 | 41152 ft | 443 kts | 229° |
| 2026-04-28 15:12 | 29.06333 | -38.99356 | 41150 ft | 441 kts | 229° |
| 2026-04-28 15:13 | 29.01642 | -39.03855 | 41151 ft | 441 kts | 229° |
| 2026-04-28 15:13 | 28.96928 | -39.08369 | 41156 ft | 440 kts | 229° |
| 2026-04-28 15:14 | 28.92235 | -39.12859 | 41155 ft | 440 kts | 229° |
| 2026-04-28 15:14 | 28.87542 | -39.17342 | 41151 ft | 440 kts | 229° |
| 2026-04-28 15:15 | 28.82862 | -39.21808 | 41159 ft | 440 kts | 229° |
| 2026-04-28 15:15 | 28.78155 | -39.26294 | 41160 ft | 440 kts | 229° |
| 2026-04-28 15:16 | 28.73456 | -39.30767 | 41157 ft | 440 kts | 229° |
| 2026-04-28 15:16 | 28.68745 | -39.35246 | 41161 ft | 440 kts | 229° |
| 2026-04-28 15:17 | 28.64096 | -39.39660 | 41161 ft | 439 kts | 229° |
| 2026-04-28 15:17 | 28.59386 | -39.44128 | 41159 ft | 439 kts | 229° |
| 2026-04-28 15:18 | 28.54683 | -39.48584 | 41162 ft | 439 kts | 229° |
| 2026-04-28 15:18 | 28.49984 | -39.53029 | 41164 ft | 439 kts | 229° |
| 2026-04-28 15:19 | 28.45281 | -39.57474 | 41166 ft | 439 kts | 229° |
| 2026-04-28 15:19 | 28.40588 | -39.61904 | 41181 ft | 439 kts | 230° |
| 2026-04-28 15:20 | 28.35916 | -39.66309 | 41173 ft | 439 kts | 230° |
| 2026-04-28 15:20 | 28.31214 | -39.70736 | 41167 ft | 438 kts | 230° |
| 2026-04-28 15:21 | 28.26549 | -39.75124 | 41166 ft | 437 kts | 230° |
| 2026-04-28 15:21 | 28.21846 | -39.79543 | 41168 ft | 436 kts | 230° |
| 2026-04-28 15:22 | 28.17206 | -39.83897 | 41162 ft | 436 kts | 230° |
| 2026-04-28 15:22 | 28.12530 | -39.88279 | 41176 ft | 436 kts | 230° |
| 2026-04-28 15:23 | 28.07832 | -39.92677 | 41163 ft | 435 kts | 230° |
| 2026-04-28 15:23 | 28.03197 | -39.97012 | 41166 ft | 435 kts | 230° |
| 2026-04-28 15:24 | 27.98792 | -40.01592 | 41184 ft | 423 kts | 240° |
| 2026-04-28 15:24 | 27.94973 | -40.06657 | 41178 ft | 423 kts | 239° |
| 2026-04-28 15:25 | 27.91138 | -40.11706 | 41177 ft | 422 kts | 239° |
| 2026-04-28 15:25 | 27.87310 | -40.16767 | 41171 ft | 423 kts | 239° |
| 2026-04-28 15:26 | 27.83484 | -40.21802 | 41190 ft | 423 kts | 239° |
| 2026-04-28 15:26 | 27.79672 | -40.26822 | 41180 ft | 423 kts | 239° |
| 2026-04-28 15:27 | 27.75830 | -40.31872 | 41179 ft | 423 kts | 239° |
| 2026-04-28 15:27 | 27.72002 | -40.36899 | 41177 ft | 422 kts | 239° |
| 2026-04-28 15:28 | 27.68187 | -40.41900 | 41174 ft | 422 kts | 239° |
| 2026-04-28 15:28 | 27.64340 | -40.46941 | 41175 ft | 420 kts | 239° |
| 2026-04-28 15:29 | 27.60553 | -40.51896 | 41176 ft | 419 kts | 239° |
| 2026-04-28 15:29 | 27.56737 | -40.56884 | 41174 ft | 420 kts | 239° |
| 2026-04-28 15:30 | 27.52917 | -40.61870 | 41175 ft | 420 kts | 239° |
| 2026-04-28 15:30 | 27.49088 | -40.66864 | 41172 ft | 421 kts | 239° |
| 2026-04-28 15:31 | 27.45271 | -40.71833 | 41176 ft | 420 kts | 239° |
| 2026-04-28 15:31 | 27.41444 | -40.76812 | 41174 ft | 420 kts | 239° |
| 2026-04-28 15:32 | 27.38272 | -40.80935 | 41174 ft | 420 kts | 239° |
| 2026-04-28 15:32 | 27.34439 | -40.85911 | 41175 ft | 420 kts | 239° |
| 2026-04-28 15:33 | 27.30613 | -40.90871 | 41174 ft | 420 kts | 239° |
| 2026-04-28 15:33 | 27.26784 | -40.95830 | 41177 ft | 419 kts | 239° |
| 2026-04-28 15:34 | 27.22964 | -41.00773 | 41177 ft | 419 kts | 239° |
| 2026-04-28 15:34 | 27.19150 | -41.05700 | 41182 ft | 420 kts | 239° |
| 2026-04-28 15:35 | 27.15305 | -41.10664 | 41173 ft | 421 kts | 239° |
| 2026-04-28 15:35 | 27.09515 | -41.18126 | 41177 ft | 421 kts | 239° |
| 2026-04-28 15:36 | 27.05673 | -41.23070 | 41177 ft | 420 kts | 239° |
| 2026-04-28 15:36 | 27.01829 | -41.28013 | 41181 ft | 421 kts | 239° |
| 2026-04-28 15:37 | 26.97986 | -41.32948 | 41180 ft | 422 kts | 239° |
| 2026-04-28 15:37 | 26.94108 | -41.37921 | 41195 ft | 422 kts | 239° |
| 2026-04-28 15:38 | 26.90269 | -41.42840 | 41186 ft | 422 kts | 239° |
| 2026-04-28 15:38 | 26.86394 | -41.47799 | 41181 ft | 422 kts | 239° |
| 2026-04-28 15:39 | 26.82529 | -41.52740 | 41176 ft | 421 kts | 239° |
| 2026-04-28 15:39 | 26.78671 | -41.57667 | 41179 ft | 420 kts | 239° |
| 2026-04-28 15:40 | 26.74809 | -41.62592 | 41181 ft | 420 kts | 239° |
| 2026-04-28 15:40 | 26.70978 | -41.67473 | 41181 ft | 421 kts | 239° |
| 2026-04-28 15:41 | 26.67108 | -41.72399 | 41181 ft | 421 kts | 238° |
| 2026-04-28 15:41 | 26.63240 | -41.77315 | 41185 ft | 421 kts | 238° |
| 2026-04-28 15:42 | 26.59376 | -41.82222 | 41185 ft | 421 kts | 238° |
| 2026-04-28 15:42 | 26.55498 | -41.87140 | 41189 ft | 421 kts | 238° |
| 2026-04-28 15:43 | 26.51627 | -41.92044 | 41185 ft | 421 kts | 238° |
| 2026-04-28 15:43 | 26.47770 | -41.96926 | 41188 ft | 421 kts | 238° |
| 2026-04-28 15:44 | 26.43891 | -42.01831 | 41183 ft | 421 kts | 238° |
| 2026-04-28 15:44 | 26.40012 | -42.06728 | 41186 ft | 421 kts | 238° |
| 2026-04-28 15:45 | 26.36138 | -42.11616 | 41186 ft | 422 kts | 238° |
| 2026-04-28 15:45 | 26.32255 | -42.16507 | 41186 ft | 422 kts | 238° |
| 2026-04-28 15:46 | 26.28370 | -42.21397 | 41189 ft | 421 kts | 238° |
| 2026-04-28 15:46 | 26.24476 | -42.26293 | 41186 ft | 421 kts | 238° |
| 2026-04-28 15:47 | 26.20604 | -42.31156 | 41186 ft | 421 kts | 238° |
| 2026-04-28 15:47 | 26.16728 | -42.36017 | 41192 ft | 420 kts | 238° |
| 2026-04-28 15:48 | 26.12836 | -42.40894 | 41189 ft | 419 kts | 238° |
| 2026-04-28 15:48 | 26.08955 | -42.45754 | 41205 ft | 420 kts | 238° |
| 2026-04-28 15:49 | 26.05107 | -42.50565 | 41203 ft | 419 kts | 237° |
| 2026-04-28 15:49 | 26.01221 | -42.55419 | 41197 ft | 419 kts | 237° |
| 2026-04-28 15:50 | 25.97337 | -42.60265 | 41188 ft | 419 kts | 237° |
| 2026-04-28 15:50 | 25.93469 | -42.65087 | 41194 ft | 420 kts | 237° |
| 2026-04-28 15:51 | 25.89557 | -42.69956 | 41195 ft | 420 kts | 237° |
| 2026-04-28 15:51 | 25.85686 | -42.74772 | 41192 ft | 420 kts | 237° |
| 2026-04-28 15:52 | 25.81788 | -42.79614 | 41193 ft | 420 kts | 237° |
| 2026-04-28 15:52 | 25.77886 | -42.84458 | 41194 ft | 421 kts | 237° |
| 2026-04-28 15:53 | 25.73976 | -42.89304 | 41195 ft | 422 kts | 236° |
| 2026-04-28 15:53 | 25.70075 | -42.94135 | 41195 ft | 422 kts | 236° |
| 2026-04-28 15:54 | 25.66144 | -42.98998 | 41200 ft | 421 kts | 236° |
| 2026-04-28 15:54 | 25.62234 | -43.03831 | 41190 ft | 422 kts | 236° |
| 2026-04-28 15:55 | 25.58304 | -43.08682 | 41192 ft | 423 kts | 236° |
| 2026-04-28 15:55 | 25.54383 | -43.13517 | 41191 ft | 424 kts | 236° |
| 2026-04-28 15:56 | 25.50454 | -43.18356 | 41192 ft | 423 kts | 236° |
| 2026-04-28 15:56 | 25.46512 | -43.23208 | 41194 ft | 423 kts | 236° |
| 2026-04-28 15:57 | 25.42574 | -43.28048 | 41193 ft | 423 kts | 236° |
| 2026-04-28 15:57 | 25.38625 | -43.32898 | 41194 ft | 424 kts | 236° |
| 2026-04-28 15:58 | 25.34676 | -43.37742 | 41194 ft | 425 kts | 236° |
| 2026-04-28 15:58 | 25.30714 | -43.42596 | 41197 ft | 425 kts | 236° |
| 2026-04-28 15:59 | 25.27426 | -43.46621 | 41188 ft | 424 kts | 236° |
| 2026-04-28 15:59 | 25.22809 | -43.52268 | 41189 ft | 424 kts | 236° |
| 2026-04-28 16:00 | 25.18862 | -43.57088 | 41193 ft | 424 kts | 236° |
| 2026-04-28 16:00 | 25.14900 | -43.61924 | 41193 ft | 424 kts | 236° |
| 2026-04-28 16:01 | 25.10943 | -43.66747 | 41192 ft | 424 kts | 236° |
| 2026-04-28 16:01 | 25.06977 | -43.71577 | 41186 ft | 424 kts | 236° |
| 2026-04-28 16:02 | 25.03008 | -43.76403 | 41192 ft | 424 kts | 236° |
| 2026-04-28 16:02 | 24.99073 | -43.81187 | 41190 ft | 424 kts | 235° |
| 2026-04-28 16:03 | 24.95100 | -43.86008 | 41191 ft | 424 kts | 235° |
| 2026-04-28 16:03 | 24.91120 | -43.90844 | 41865 ft | 430 kts | 227° |
| 2026-04-28 16:04 | 24.89095 | -43.93288 | 41685 ft | 439 kts | 227° |
| 2026-04-28 16:04 | 24.87011 | -43.95808 | 41540 ft | 447 kts | 227° |
| 2026-04-28 16:04 | 24.84910 | -43.98355 | 41413 ft | 454 kts | 227° |
| 2026-04-28 16:04 | 24.82783 | -44.00932 | 41315 ft | 462 kts | 227° |
| 2026-04-28 16:05 | 24.80583 | -44.03589 | 41210 ft | 469 kts | 227° |
| 2026-04-28 16:05 | 24.78388 | -44.06239 | 41107 ft | 476 kts | 227° |
| 2026-04-28 16:05 | 24.73862 | -44.11707 | 41013 ft | 488 kts | 227° |
| 2026-04-28 16:06 | 24.69243 | -44.17275 | 41015 ft | 491 kts | 227° |
| 2026-04-28 16:06 | 24.64672 | -44.22781 | 41011 ft | 492 kts | 227° |
| 2026-04-28 16:07 | 24.60028 | -44.28368 | 41011 ft | 492 kts | 227° |
| 2026-04-28 16:08 | 24.53086 | -44.36707 | 41012 ft | 492 kts | 227° |
| 2026-04-28 16:08 | 24.48497 | -44.42212 | 41010 ft | 492 kts | 227° |
| 2026-04-28 16:09 | 24.41559 | -44.50523 | 41010 ft | 492 kts | 227° |
| 2026-04-28 16:10 | 24.34609 | -44.58832 | 41009 ft | 492 kts | 227° |
| 2026-04-28 16:10 | 24.27666 | -44.67119 | 41011 ft | 492 kts | 227° |
| 2026-04-28 16:11 | 24.18402 | -44.78154 | 41009 ft | 492 kts | 227° |
| 2026-04-28 16:12 | 24.11455 | -44.86412 | 41013 ft | 491 kts | 227° |
| 2026-04-28 16:13 | 24.04524 | -44.94638 | 41011 ft | 491 kts | 227° |
| 2026-04-28 16:14 | 23.94090 | -45.04144 | 41004 ft | 491 kts | 212° |
| 2026-04-28 16:15 | 23.82562 | -45.12207 | 41006 ft | 491 kts | 212° |
| 2026-04-28 16:15 | 23.76828 | -45.16207 | 41009 ft | 491 kts | 213° |
| 2026-04-28 16:16 | 23.68162 | -45.22253 | 41012 ft | 491 kts | 212° |
| 2026-04-28 16:17 | 23.59574 | -45.28235 | 41013 ft | 491 kts | 212° |
| 2026-04-28 16:17 | 23.53807 | -45.32244 | 41009 ft | 491 kts | 212° |
| 2026-04-28 16:18 | 23.48049 | -45.36246 | 41009 ft | 490 kts | 212° |
| 2026-04-28 16:18 | 23.43267 | -45.39564 | 41010 ft | 490 kts | 212° |
| 2026-04-28 16:19 | 23.37504 | -45.43560 | 41011 ft | 490 kts | 212° |
| 2026-04-28 16:19 | 23.31753 | -45.47543 | 41013 ft | 490 kts | 212° |
| 2026-04-28 16:20 | 23.25991 | -45.51530 | 41009 ft | 490 kts | 212° |
| 2026-04-28 16:20 | 23.20228 | -45.55515 | 41009 ft | 490 kts | 212° |
| 2026-04-28 16:21 | 23.14510 | -45.59463 | 41012 ft | 490 kts | 212° |
| 2026-04-28 16:21 | 23.08744 | -45.63440 | 41008 ft | 490 kts | 212° |
| 2026-04-28 16:22 | 23.02980 | -45.67412 | 41010 ft | 490 kts | 212° |
| 2026-04-28 16:22 | 22.97234 | -45.71367 | 41008 ft | 490 kts | 212° |
| 2026-04-28 16:23 | 22.91458 | -45.75340 | 41008 ft | 490 kts | 212° |
| 2026-04-28 16:23 | 22.85726 | -45.79278 | 41011 ft | 490 kts | 212° |
| 2026-04-28 16:24 | 22.79965 | -45.83232 | 41008 ft | 490 kts | 212° |
| 2026-04-28 16:24 | 22.74197 | -45.87186 | 41009 ft | 490 kts | 212° |
| 2026-04-28 16:25 | 22.68443 | -45.91127 | 41009 ft | 490 kts | 212° |
| 2026-04-28 16:25 | 22.62694 | -45.95060 | 41010 ft | 490 kts | 212° |
| 2026-04-28 16:26 | 22.56954 | -45.98984 | 41009 ft | 490 kts | 212° |
| 2026-04-28 16:26 | 22.51158 | -46.02942 | 41011 ft | 490 kts | 212° |
| 2026-04-28 16:27 | 22.45422 | -46.06855 | 41012 ft | 490 kts | 212° |
| 2026-04-28 16:28 | 22.36769 | -46.12750 | 41010 ft | 490 kts | 212° |
| 2026-04-28 16:28 | 22.31014 | -46.16666 | 41010 ft | 490 kts | 212° |
| 2026-04-28 16:29 | 22.22343 | -46.22559 | 41009 ft | 490 kts | 212° |
| 2026-04-28 16:30 | 22.13698 | -46.28426 | 41008 ft | 490 kts | 212° |
| 2026-04-28 16:30 | 22.07963 | -46.32313 | 41012 ft | 490 kts | 212° |
| 2026-04-28 16:31 | 22.02172 | -46.36234 | 41011 ft | 490 kts | 212° |
| 2026-04-28 16:31 | 21.96398 | -46.40140 | 41009 ft | 490 kts | 212° |
| 2026-04-28 16:32 | 21.90620 | -46.44045 | 41010 ft | 490 kts | 212° |
| 2026-04-28 16:32 | 21.81955 | -46.49894 | 41010 ft | 490 kts | 212° |
| 2026-04-28 16:33 | 21.77169 | -46.53121 | 41011 ft | 490 kts | 212° |
| 2026-04-28 16:33 | 21.70400 | -46.57680 | 41010 ft | 490 kts | 212° |
| 2026-04-28 16:34 | 21.64653 | -46.61548 | 41009 ft | 490 kts | 212° |
| 2026-04-28 16:34 | 21.58882 | -46.65427 | 41010 ft | 490 kts | 212° |
| 2026-04-28 16:35 | 21.53092 | -46.69315 | 41015 ft | 490 kts | 212° |
| 2026-04-28 16:35 | 21.47308 | -46.73196 | 41008 ft | 490 kts | 212° |
| 2026-04-28 16:36 | 21.41533 | -46.77068 | 41011 ft | 490 kts | 212° |
| 2026-04-28 16:36 | 21.35737 | -46.80949 | 41008 ft | 490 kts | 212° |
| 2026-04-28 16:37 | 21.29950 | -46.84821 | 41010 ft | 490 kts | 212° |
| 2026-04-28 16:38 | 21.21297 | -46.90604 | 41009 ft | 490 kts | 212° |
| 2026-04-28 16:38 | 21.15505 | -46.94470 | 41011 ft | 490 kts | 212° |
| 2026-04-28 16:39 | 21.09705 | -46.98338 | 41009 ft | 490 kts | 212° |
| 2026-04-28 16:39 | 21.03915 | -47.02195 | 41009 ft | 490 kts | 212° |
| 2026-04-28 16:40 | 20.98149 | -47.06033 | 41010 ft | 490 kts | 212° |
| 2026-04-28 16:40 | 20.92353 | -47.09888 | 41010 ft | 490 kts | 212° |
| 2026-04-28 16:41 | 20.86530 | -47.13757 | 41009 ft | 490 kts | 212° |
| 2026-04-28 16:41 | 20.80727 | -47.17609 | 41010 ft | 490 kts | 212° |
| 2026-04-28 16:42 | 20.74960 | -47.21433 | 41010 ft | 491 kts | 212° |
| 2026-04-28 16:42 | 20.69165 | -47.25272 | 41009 ft | 490 kts | 212° |
| 2026-04-28 16:43 | 20.63349 | -47.29123 | 41010 ft | 490 kts | 212° |
| 2026-04-28 16:43 | 20.57565 | -47.32949 | 41009 ft | 490 kts | 212° |
| 2026-04-28 16:44 | 20.51756 | -47.36787 | 41012 ft | 490 kts | 212° |
| 2026-04-28 16:44 | 20.45943 | -47.40624 | 41010 ft | 490 kts | 212° |
| 2026-04-28 16:45 | 20.40146 | -47.44448 | 41009 ft | 490 kts | 212° |
| 2026-04-28 16:45 | 20.34339 | -47.48275 | 41011 ft | 490 kts | 212° |
| 2026-04-28 16:46 | 20.28531 | -47.52099 | 41013 ft | 490 kts | 212° |
| 2026-04-28 16:46 | 20.22757 | -47.55897 | 41009 ft | 490 kts | 212° |
| 2026-04-28 16:47 | 20.16955 | -47.59710 | 41010 ft | 490 kts | 212° |
| 2026-04-28 16:47 | 20.11138 | -47.63530 | 41009 ft | 490 kts | 212° |
| 2026-04-28 16:48 | 20.05332 | -47.67339 | 41009 ft | 490 kts | 212° |
| 2026-04-28 16:48 | 19.99518 | -47.71151 | 41011 ft | 490 kts | 212° |
| 2026-04-28 16:49 | 19.93726 | -47.74944 | 41009 ft | 490 kts | 212° |
| 2026-04-28 16:49 | 19.87916 | -47.78746 | 41011 ft | 490 kts | 212° |
| 2026-04-28 16:50 | 19.82126 | -47.82531 | 41010 ft | 490 kts | 212° |
| 2026-04-28 16:50 | 19.76264 | -47.86360 | 41009 ft | 490 kts | 212° |
| 2026-04-28 16:51 | 19.70452 | -47.90154 | 41009 ft | 490 kts | 212° |
| 2026-04-28 16:51 | 19.64664 | -47.93928 | 41010 ft | 490 kts | 212° |
| 2026-04-28 16:52 | 19.58881 | -47.97696 | 41011 ft | 491 kts | 211° |
| 2026-04-28 16:52 | 19.53039 | -48.01499 | 41013 ft | 491 kts | 211° |
| 2026-04-28 16:53 | 19.47209 | -48.05290 | 41009 ft | 491 kts | 211° |
| 2026-04-28 16:53 | 19.41391 | -48.09071 | 41009 ft | 491 kts | 211° |
| 2026-04-28 16:54 | 19.35587 | -48.12840 | 41010 ft | 491 kts | 211° |
| 2026-04-28 16:54 | 19.29757 | -48.16622 | 41009 ft | 490 kts | 211° |
| 2026-04-28 16:55 | 19.23931 | -48.20398 | 41009 ft | 490 kts | 211° |
| 2026-04-28 16:55 | 19.18137 | -48.24151 | 41011 ft | 490 kts | 211° |
| 2026-04-28 16:56 | 19.12317 | -48.27917 | 41009 ft | 490 kts | 211° |
| 2026-04-28 16:56 | 19.06495 | -48.31682 | 41010 ft | 490 kts | 211° |
| 2026-04-28 16:57 | 19.00662 | -48.35450 | 41009 ft | 490 kts | 211° |
| 2026-04-28 16:57 | 18.94874 | -48.39186 | 41011 ft | 490 kts | 211° |
| 2026-04-28 16:58 | 18.89042 | -48.42948 | 41009 ft | 490 kts | 211° |
| 2026-04-28 16:58 | 18.83232 | -48.46692 | 41009 ft | 490 kts | 211° |
| 2026-04-28 16:59 | 18.77397 | -48.50449 | 41009 ft | 490 kts | 211° |
| 2026-04-28 16:59 | 18.71571 | -48.54197 | 41011 ft | 490 kts | 211° |
| 2026-04-28 17:00 | 18.65739 | -48.57946 | 41009 ft | 490 kts | 211° |
| 2026-04-28 17:00 | 18.59908 | -48.61692 | 41012 ft | 490 kts | 211° |
| 2026-04-28 17:01 | 18.54088 | -48.65427 | 41010 ft | 490 kts | 211° |
| 2026-04-28 17:01 | 18.48257 | -48.69167 | 41011 ft | 490 kts | 211° |
| 2026-04-28 17:02 | 18.42463 | -48.72879 | 41010 ft | 490 kts | 211° |
| 2026-04-28 17:02 | 18.36627 | -48.76616 | 41009 ft | 490 kts | 211° |
| 2026-04-28 17:03 | 18.27881 | -48.82210 | 41009 ft | 490 kts | 211° |
| 2026-04-28 17:03 | 18.22064 | -48.85927 | 41010 ft | 490 kts | 211° |
| 2026-04-28 17:04 | 18.13324 | -48.91506 | 41010 ft | 490 kts | 211° |
| 2026-04-28 17:05 | 18.04571 | -48.97087 | 41013 ft | 491 kts | 211° |
| 2026-04-28 17:06 | 17.95596 | -49.02244 | 41007 ft | 491 kts | 205° |
| 2026-04-28 17:06 | 17.87385 | -49.06377 | 41006 ft | 491 kts | 206° |
| 2026-04-28 17:07 | 17.81270 | -49.09470 | 41006 ft | 490 kts | 206° |
| 2026-04-28 17:07 | 17.75107 | -49.12576 | 41012 ft | 490 kts | 206° |
| 2026-04-28 17:08 | 17.68922 | -49.15699 | 41007 ft | 490 kts | 206° |
| 2026-04-28 17:08 | 17.62802 | -49.18780 | 41008 ft | 490 kts | 206° |
| 2026-04-28 17:09 | 17.56671 | -49.21869 | 41007 ft | 490 kts | 206° |
| 2026-04-28 17:09 | 17.50520 | -49.24963 | 41007 ft | 490 kts | 206° |
| 2026-04-28 17:10 | 17.44353 | -49.28065 | 41008 ft | 490 kts | 206° |
| 2026-04-28 17:10 | 17.38177 | -49.31167 | 41006 ft | 490 kts | 206° |
| 2026-04-28 17:11 | 17.32032 | -49.34252 | 41006 ft | 490 kts | 206° |
| 2026-04-28 17:11 | 17.25882 | -49.37337 | 41007 ft | 490 kts | 206° |
| 2026-04-28 17:12 | 17.19763 | -49.40405 | 41006 ft | 490 kts | 206° |
| 2026-04-28 17:12 | 17.13577 | -49.43504 | 41007 ft | 490 kts | 206° |
| 2026-04-28 17:13 | 17.07460 | -49.46565 | 41010 ft | 490 kts | 206° |
| 2026-04-28 17:13 | 17.01290 | -49.49651 | 41010 ft | 490 kts | 206° |
| 2026-04-28 17:14 | 16.95169 | -49.52711 | 41009 ft | 490 kts | 206° |
| 2026-04-28 17:14 | 16.88982 | -49.55801 | 41007 ft | 490 kts | 206° |
| 2026-04-28 17:15 | 16.82869 | -49.58852 | 41007 ft | 490 kts | 206° |
| 2026-04-28 17:15 | 16.76705 | -49.61926 | 41007 ft | 490 kts | 206° |
| 2026-04-28 17:16 | 16.70521 | -49.65008 | 41008 ft | 490 kts | 205° |
| 2026-04-28 17:16 | 16.64356 | -49.68079 | 41007 ft | 490 kts | 205° |
| 2026-04-28 17:17 | 16.58238 | -49.71123 | 41008 ft | 491 kts | 205° |
| 2026-04-28 17:17 | 16.52081 | -49.74185 | 41010 ft | 491 kts | 205° |
| 2026-04-28 17:18 | 16.45921 | -49.77246 | 41009 ft | 491 kts | 205° |
| 2026-04-28 17:18 | 16.39739 | -49.80316 | 41009 ft | 491 kts | 205° |
| 2026-04-28 17:19 | 16.33609 | -49.83358 | 41008 ft | 491 kts | 205° |
| 2026-04-28 17:19 | 16.27432 | -49.86421 | 41006 ft | 491 kts | 205° |
| 2026-04-28 17:20 | 16.22319 | -49.88955 | 41008 ft | 491 kts | 205° |
| 2026-04-28 17:20 | 16.15112 | -49.92524 | 41007 ft | 491 kts | 205° |
| 2026-04-28 17:21 | 16.08929 | -49.95584 | 41010 ft | 491 kts | 205° |
| 2026-04-28 17:22 | 15.99687 | -50.00154 | 41008 ft | 490 kts | 205° |
| 2026-04-28 17:22 | 15.93517 | -50.03062 | 41008 ft | 490 kts | 204° |
| 2026-04-28 17:23 | 15.84200 | -50.07470 | 41009 ft | 490 kts | 204° |
| 2026-04-28 17:23 | 15.77986 | -50.10377 | 41008 ft | 490 kts | 204° |
| 2026-04-28 17:24 | 15.71784 | -50.13311 | 41010 ft | 490 kts | 204° |
| 2026-04-28 17:24 | 15.65542 | -50.16242 | 41008 ft | 490 kts | 204° |
| 2026-04-28 17:25 | 15.56211 | -50.20635 | 41008 ft | 490 kts | 204° |
| 2026-04-28 17:26 | 15.50002 | -50.23551 | 41010 ft | 490 kts | 204° |
| 2026-04-28 17:26 | 15.43809 | -50.26461 | 41008 ft | 490 kts | 204° |
| 2026-04-28 17:27 | 15.37578 | -50.29384 | 41009 ft | 490 kts | 204° |
| 2026-04-28 17:27 | 15.31373 | -50.32295 | 41008 ft | 490 kts | 204° |
| 2026-04-28 17:28 | 15.25422 | -50.35084 | 41010 ft | 490 kts | 204° |
| 2026-04-28 17:28 | 15.16065 | -50.39467 | 41008 ft | 490 kts | 204° |
| 2026-04-28 17:29 | 15.09858 | -50.42372 | 41009 ft | 490 kts | 204° |
| 2026-04-28 17:30 | 15.00525 | -50.46736 | 41013 ft | 491 kts | 204° |
| 2026-04-28 17:30 | 14.91171 | -50.51106 | 41010 ft | 491 kts | 204° |
| 2026-04-28 17:31 | 14.81872 | -50.55445 | 41010 ft | 491 kts | 204° |
| 2026-04-28 17:32 | 14.72533 | -50.59800 | 41009 ft | 491 kts | 204° |
| 2026-04-28 17:32 | 14.66296 | -50.62706 | 41008 ft | 491 kts | 204° |
| 2026-04-28 17:33 | 14.60066 | -50.65606 | 41012 ft | 491 kts | 204° |
| 2026-04-28 17:33 | 14.54885 | -50.68017 | 41010 ft | 491 kts | 204° |
| 2026-04-28 17:34 | 14.47615 | -50.71398 | 41010 ft | 491 kts | 204° |
| 2026-04-28 17:34 | 14.41420 | -50.74277 | 41011 ft | 491 kts | 204° |
| 2026-04-28 17:35 | 14.35187 | -50.77172 | 41009 ft | 491 kts | 204° |
| 2026-04-28 17:35 | 14.28968 | -50.80058 | 41010 ft | 491 kts | 204° |
| 2026-04-28 17:36 | 14.22737 | -50.82949 | 41012 ft | 491 kts | 204° |
| 2026-04-28 17:36 | 14.16501 | -50.85840 | 41010 ft | 491 kts | 204° |
| 2026-04-28 17:37 | 14.10260 | -50.88731 | 41008 ft | 491 kts | 204° |
| 2026-04-28 17:37 | 14.04039 | -50.91612 | 41008 ft | 491 kts | 204° |
| 2026-04-28 17:38 | 13.97832 | -50.94484 | 41010 ft | 491 kts | 204° |
| 2026-04-28 17:38 | 13.91604 | -50.97365 | 41009 ft | 491 kts | 204° |
| 2026-04-28 17:39 | 13.85362 | -51.00250 | 41010 ft | 491 kts | 204° |
| 2026-04-28 17:40 | 13.76063 | -51.04545 | 41008 ft | 491 kts | 204° |
| 2026-04-28 17:40 | 13.69824 | -51.07425 | 41011 ft | 491 kts | 204° |
| 2026-04-28 17:41 | 13.63595 | -51.10298 | 41013 ft | 491 kts | 204° |
| 2026-04-28 17:41 | 13.57380 | -51.13163 | 41011 ft | 491 kts | 204° |
| 2026-04-28 17:42 | 13.51128 | -51.16043 | 41011 ft | 491 kts | 204° |
| 2026-04-28 17:42 | 13.44946 | -51.18890 | 41009 ft | 491 kts | 204° |
| 2026-04-28 17:43 | 13.38684 | -51.21772 | 41009 ft | 491 kts | 204° |
| 2026-04-28 17:43 | 13.32449 | -51.24640 | 41008 ft | 491 kts | 204° |
| 2026-04-28 17:44 | 13.26262 | -51.27484 | 41014 ft | 491 kts | 204° |
| 2026-04-28 17:44 | 13.20016 | -51.30353 | 41011 ft | 491 kts | 204° |
| 2026-04-28 17:45 | 13.13795 | -51.33210 | 41008 ft | 491 kts | 204° |
| 2026-04-28 17:45 | 13.07552 | -51.36075 | 41008 ft | 491 kts | 204° |
| 2026-04-28 17:46 | 13.01302 | -51.38941 | 41012 ft | 491 kts | 204° |
| 2026-04-28 17:46 | 12.95079 | -51.41794 | 41010 ft | 491 kts | 204° |
| 2026-04-28 17:47 | 12.88845 | -51.44650 | 41008 ft | 491 kts | 204° |
| 2026-04-28 17:47 | 12.82600 | -51.47509 | 41009 ft | 491 kts | 204° |
| 2026-04-28 17:48 | 12.76373 | -51.50359 | 41010 ft | 491 kts | 204° |
| 2026-04-28 17:48 | 12.70166 | -51.53198 | 41009 ft | 491 kts | 204° |
| 2026-04-28 17:49 | 12.63922 | -51.56053 | 41008 ft | 491 kts | 204° |
| 2026-04-28 17:49 | 12.57678 | -51.58906 | 41009 ft | 491 kts | 204° |
| 2026-04-28 17:50 | 12.51449 | -51.61750 | 41012 ft | 491 kts | 204° |
| 2026-04-28 17:50 | 12.45214 | -51.64596 | 41009 ft | 491 kts | 204° |
| 2026-04-28 17:51 | 12.38981 | -51.67439 | 41010 ft | 490 kts | 204° |
| 2026-04-28 17:51 | 12.32788 | -51.70263 | 41011 ft | 490 kts | 204° |
| 2026-04-28 17:52 | 12.26535 | -51.73113 | 41008 ft | 490 kts | 204° |
| 2026-04-28 17:52 | 12.17214 | -51.77357 | 41011 ft | 490 kts | 204° |
| 2026-04-28 17:53 | 12.11989 | -51.79736 | 41010 ft | 490 kts | 204° |
| 2026-04-28 17:53 | 12.04718 | -51.83043 | 41008 ft | 490 kts | 204° |
| 2026-04-28 17:54 | 11.98508 | -51.85867 | 41009 ft | 490 kts | 204° |
| 2026-04-28 17:54 | 11.93296 | -51.88235 | 41009 ft | 490 kts | 204° |
| 2026-04-28 17:55 | 11.86045 | -51.91529 | 41009 ft | 490 kts | 204° |
| 2026-04-28 17:55 | 11.80851 | -51.93887 | 41009 ft | 490 kts | 204° |
| 2026-04-28 17:56 | 11.74586 | -51.96729 | 41012 ft | 490 kts | 204° |
| 2026-04-28 17:56 | 11.68385 | -51.99542 | 41009 ft | 491 kts | 204° |
| 2026-04-28 17:57 | 11.62148 | -52.02369 | 41008 ft | 491 kts | 204° |
| 2026-04-28 17:57 | 11.55906 | -52.05197 | 41009 ft | 491 kts | 204° |
| 2026-04-28 17:58 | 11.49670 | -52.08022 | 41009 ft | 491 kts | 204° |
| 2026-04-28 17:58 | 11.43455 | -52.10835 | 41008 ft | 491 kts | 204° |
| 2026-04-28 17:59 | 11.37174 | -52.13677 | 41009 ft | 491 kts | 204° |
| 2026-04-28 17:59 | 11.30965 | -52.16484 | 41012 ft | 491 kts | 204° |
| 2026-04-28 18:00 | 11.24736 | -52.19300 | 41009 ft | 491 kts | 204° |
| 2026-04-28 18:00 | 11.18484 | -52.22125 | 41008 ft | 491 kts | 204° |
| 2026-04-28 18:01 | 11.12396 | -52.24874 | 41009 ft | 491 kts | 204° |
| 2026-04-28 18:01 | 11.06192 | -52.27674 | 41009 ft | 491 kts | 204° |
| 2026-04-28 18:02 | 10.99956 | -52.30488 | 41008 ft | 491 kts | 204° |
| 2026-04-28 18:02 | 10.93668 | -52.33324 | 41010 ft | 491 kts | 204° |
| 2026-04-28 18:03 | 10.87471 | -52.36116 | 41008 ft | 491 kts | 204° |
| 2026-04-28 18:03 | 10.81182 | -52.38950 | 41010 ft | 491 kts | 204° |
| 2026-04-28 18:04 | 10.74976 | -52.41745 | 41010 ft | 491 kts | 204° |
| 2026-04-28 18:04 | 10.68700 | -52.44570 | 41009 ft | 491 kts | 204° |
| 2026-04-28 18:05 | 10.63531 | -52.46895 | 41011 ft | 491 kts | 204° |
| 2026-04-28 18:05 | 10.56225 | -52.50181 | 41008 ft | 491 kts | 204° |
| 2026-04-28 18:06 | 10.50007 | -52.52976 | 41010 ft | 491 kts | 204° |
| 2026-04-28 18:06 | 10.43764 | -52.55782 | 41009 ft | 491 kts | 204° |
| 2026-04-28 18:07 | 10.37525 | -52.58583 | 41008 ft | 491 kts | 204° |
| 2026-04-28 18:07 | 10.31280 | -52.61387 | 41009 ft | 491 kts | 204° |
| 2026-04-28 18:08 | 10.25016 | -52.64198 | 41012 ft | 491 kts | 204° |
| 2026-04-28 18:08 | 10.18952 | -52.66918 | 41009 ft | 491 kts | 204° |
| 2026-04-28 18:09 | 10.12716 | -52.69714 | 41010 ft | 491 kts | 204° |
| 2026-04-28 18:09 | 10.06458 | -52.72519 | 41012 ft | 492 kts | 204° |
| 2026-04-28 18:10 | 10.00185 | -52.75329 | 41011 ft | 492 kts | 204° |
| 2026-04-28 18:10 | 9.93920 | -52.78134 | 41011 ft | 493 kts | 204° |
| 2026-04-28 18:11 | 9.87626 | -52.80951 | 41011 ft | 494 kts | 204° |
| 2026-04-28 18:11 | 9.81330 | -52.83768 | 41011 ft | 494 kts | 204° |
| 2026-04-28 18:12 | 9.75036 | -52.86583 | 41010 ft | 495 kts | 204° |
| 2026-04-28 18:12 | 9.68769 | -52.89384 | 41009 ft | 494 kts | 204° |
| 2026-04-28 18:13 | 9.62493 | -52.92188 | 41006 ft | 493 kts | 204° |
| 2026-04-28 18:13 | 9.56228 | -52.94986 | 41001 ft | 490 kts | 204° |
| 2026-04-28 18:14 | 9.49968 | -52.97783 | 40999 ft | 491 kts | 204° |
| 2026-04-28 18:14 | 9.43743 | -53.00648 | 41030 ft | 492 kts | 207° |
| 2026-04-28 18:15 | 9.37665 | -53.03784 | 40999 ft | 493 kts | 207° |
| 2026-04-28 18:15 | 9.31550 | -53.06932 | 41004 ft | 493 kts | 207° |
| 2026-04-28 18:16 | 9.25418 | -53.10097 | 41005 ft | 493 kts | 207° |
| 2026-04-28 18:16 | 9.19289 | -53.13250 | 41005 ft | 493 kts | 207° |
| 2026-04-28 18:17 | 9.13202 | -53.16388 | 41006 ft | 493 kts | 207° |
| 2026-04-28 18:17 | 9.07091 | -53.19531 | 41004 ft | 493 kts | 207° |
| 2026-04-28 18:18 | 9.00992 | -53.22670 | 41004 ft | 493 kts | 207° |
| 2026-04-28 18:18 | 8.95891 | -53.25293 | 41003 ft | 492 kts | 207° |
| 2026-04-28 18:19 | 8.88756 | -53.28962 | 41004 ft | 492 kts | 207° |
| 2026-04-28 18:19 | 8.82675 | -53.32087 | 41004 ft | 492 kts | 207° |
| 2026-04-28 18:20 | 8.76571 | -53.35223 | 41003 ft | 492 kts | 207° |
| 2026-04-28 18:20 | 8.70457 | -53.38363 | 41001 ft | 492 kts | 207° |
| 2026-04-28 18:21 | 8.64366 | -53.41490 | 41001 ft | 491 kts | 207° |
| 2026-04-28 18:21 | 8.58296 | -53.44604 | 41003 ft | 491 kts | 207° |
| 2026-04-28 18:22 | 8.52201 | -53.47732 | 41000 ft | 491 kts | 207° |
| 2026-04-28 18:22 | 8.46118 | -53.50851 | 41001 ft | 491 kts | 207° |
| 2026-04-28 18:23 | 8.40011 | -53.53981 | 40999 ft | 491 kts | 207° |
| 2026-04-28 18:23 | 8.33918 | -53.57104 | 40999 ft | 491 kts | 207° |
| 2026-04-28 18:24 | 8.30880 | -53.58660 | 39451 ft | 491 kts | 206° |
| 2026-04-28 18:24 | 8.28887 | -53.59683 | 39526 ft | 487 kts | 206° |
| 2026-04-28 18:24 | 8.24863 | -53.61742 | 39700 ft | 487 kts | 206° |
| 2026-04-28 18:24 | 8.21835 | -53.63291 | 39829 ft | 489 kts | 206° |
| 2026-04-28 18:25 | 8.18792 | -53.64851 | 39950 ft | 491 kts | 206° |
| 2026-04-28 18:25 | 8.15730 | -53.66419 | 40077 ft | 492 kts | 206° |
| 2026-04-28 18:25 | 8.12680 | -53.67979 | 40193 ft | 494 kts | 206° |
| 2026-04-28 18:26 | 8.06524 | -53.71127 | 40446 ft | 496 kts | 206° |
| 2026-04-28 18:26 | 8.03450 | -53.72700 | 40558 ft | 496 kts | 206° |
| 2026-04-28 18:26 | 8.00376 | -53.74274 | 40696 ft | 496 kts | 206° |
| 2026-04-28 18:26 | 7.97295 | -53.75849 | 40809 ft | 496 kts | 206° |
| 2026-04-28 18:27 | 7.94220 | -53.77420 | 40930 ft | 496 kts | 206° |
| 2026-04-28 18:27 | 7.88041 | -53.80580 | 40923 ft | 497 kts | 206° |
| 2026-04-28 18:28 | 7.81904 | -53.83713 | 40924 ft | 494 kts | 206° |
| 2026-04-28 18:28 | 7.75775 | -53.86845 | 40924 ft | 493 kts | 206° |
| 2026-04-28 18:29 | 7.69653 | -53.89971 | 40915 ft | 494 kts | 206° |
| 2026-04-28 18:29 | 7.63523 | -53.93101 | 40918 ft | 494 kts | 206° |
| 2026-04-28 18:30 | 7.57380 | -53.96235 | 40919 ft | 494 kts | 206° |
| 2026-04-28 18:30 | 7.51242 | -53.99366 | 40919 ft | 495 kts | 206° |
| 2026-04-28 18:31 | 7.45257 | -54.02696 | 40932 ft | 495 kts | 208° |
| 2026-04-28 18:31 | 7.39227 | -54.06058 | 40935 ft | 495 kts | 208° |
| 2026-04-28 18:32 | 7.33200 | -54.09477 | 40935 ft | 495 kts | 208° |
| 2026-04-28 18:32 | 7.27186 | -54.12850 | 40937 ft | 495 kts | 208° |
| 2026-04-28 18:33 | 7.21184 | -54.16239 | 40933 ft | 495 kts | 208° |
| 2026-04-28 18:33 | 7.15184 | -54.19611 | 40935 ft | 495 kts | 208° |
| 2026-04-28 18:34 | 7.09181 | -54.22992 | 40935 ft | 495 kts | 208° |
| 2026-04-28 18:34 | 7.03177 | -54.26369 | 40934 ft | 495 kts | 208° |
| 2026-04-28 18:35 | 6.97139 | -54.29765 | 40933 ft | 495 kts | 208° |
| 2026-04-28 18:35 | 6.91154 | -54.33130 | 40933 ft | 495 kts | 208° |
| 2026-04-28 18:36 | 6.85136 | -54.36514 | 40937 ft | 495 kts | 208° |
| 2026-04-28 18:36 | 6.79123 | -54.39892 | 40937 ft | 495 kts | 208° |
| 2026-04-28 18:37 | 6.73096 | -54.43279 | 40661 ft | 490 kts | 208° |
| 2026-04-28 18:37 | 6.70155 | -54.44931 | 39695 ft | 494 kts | 208° |
| 2026-04-28 18:37 | 6.67140 | -54.46622 | 38970 ft | 493 kts | 208° |
| 2026-04-28 18:37 | 6.64148 | -54.48301 | 38168 ft | 492 kts | 207° |
| 2026-04-28 18:38 | 6.61136 | -54.49994 | 37436 ft | 488 kts | 207° |
| 2026-04-28 18:38 | 6.58221 | -54.51631 | 36724 ft | 485 kts | 207° |
| 2026-04-28 18:38 | 6.55300 | -54.53269 | 36017 ft | 482 kts | 207° |
| 2026-04-28 18:38 | 6.52360 | -54.54919 | 35286 ft | 479 kts | 207° |
| 2026-04-28 18:39 | 6.49461 | -54.56546 | 34568 ft | 476 kts | 207° |
| 2026-04-28 18:39 | 6.46562 | -54.58172 | 33837 ft | 473 kts | 207° |
| 2026-04-28 18:39 | 6.43704 | -54.59776 | 33107 ft | 468 kts | 207° |
| 2026-04-28 18:39 | 6.40903 | -54.61347 | 32403 ft | 464 kts | 207° |
| 2026-04-28 18:40 | 6.38097 | -54.62921 | 31700 ft | 459 kts | 206° |
| 2026-04-28 18:40 | 6.35331 | -54.64471 | 31004 ft | 455 kts | 206° |
| 2026-04-28 18:40 | 6.32577 | -54.66015 | 30317 ft | 451 kts | 206° |
| 2026-04-28 18:40 | 6.29849 | -54.67545 | 29567 ft | 447 kts | 206° |
| 2026-04-28 18:41 | 6.27140 | -54.69063 | 28886 ft | 440 kts | 206° |
| 2026-04-28 18:41 | 6.24486 | -54.70551 | 28208 ft | 434 kts | 206° |
| 2026-04-28 18:41 | 6.21865 | -54.72020 | 27538 ft | 428 kts | 206° |
| 2026-04-28 18:41 | 6.19304 | -54.73455 | 26888 ft | 423 kts | 206° |
| 2026-04-28 18:42 | 6.16748 | -54.74886 | 26201 ft | 419 kts | 206° |
| 2026-04-28 18:42 | 6.15054 | -54.75836 | 25775 ft | 416 kts | 206° |
| 2026-04-28 18:42 | 6.11706 | -54.77711 | 24888 ft | 411 kts | 206° |
| 2026-04-28 18:42 | 6.09217 | -54.79105 | 24239 ft | 408 kts | 206° |
| 2026-04-28 18:43 | 6.06756 | -54.80483 | 23584 ft | 405 kts | 206° |
| 2026-04-28 18:43 | 6.04300 | -54.81858 | 22868 ft | 401 kts | 206° |
| 2026-04-28 18:43 | 6.02672 | -54.82795 | 22431 ft | 398 kts | 211° |
| 2026-04-28 18:43 | 5.99977 | -54.85272 | 21573 ft | 396 kts | 226° |
| 2026-04-28 18:44 | 5.98917 | -54.86490 | 21185 ft | 393 kts | 227° |
| 2026-04-28 18:44 | 5.95405 | -54.90591 | 19890 ft | 386 kts | 227° |
| 2026-04-28 18:44 | 5.93623 | -54.92645 | 19134 ft | 386 kts | 227° |
| 2026-04-28 18:45 | 5.91885 | -54.94647 | 18483 ft | 383 kts | 227° |
| 2026-04-28 18:45 | 5.90143 | -54.96665 | 17783 ft | 381 kts | 227° |
| 2026-04-28 18:45 | 5.88426 | -54.98657 | 17135 ft | 375 kts | 227° |
| 2026-04-28 18:45 | 5.87285 | -54.99978 | 16494 ft | 378 kts | 227° |
| 2026-04-28 18:46 | 5.86607 | -55.00760 | 16472 ft | 369 kts | 227° |
| 2026-04-28 18:46 | 5.84978 | -55.02642 | 15889 ft | 352 kts | 227° |
| 2026-04-28 18:46 | 5.83427 | -55.04438 | 15288 ft | 328 kts | 227° |
| 2026-04-28 18:47 | 5.81960 | -55.06136 | 14721 ft | 309 kts | 227° |
| 2026-04-28 18:47 | 5.80604 | -55.07702 | 14172 ft | 295 kts | 227° |
| 2026-04-28 18:47 | 5.79284 | -55.09229 | 13641 ft | 282 kts | 227° |
| 2026-04-28 18:47 | 5.78033 | -55.10675 | 13116 ft | 272 kts | 227° |
| 2026-04-28 18:48 | 5.76802 | -55.12098 | 12616 ft | 262 kts | 227° |
| 2026-04-28 18:48 | 5.75636 | -55.13445 | 12132 ft | 254 kts | 227° |
| 2026-04-28 18:48 | 5.74482 | -55.14779 | 11673 ft | 248 kts | 227° |
| 2026-04-28 18:48 | 5.73362 | -55.16072 | 11194 ft | 243 kts | 227° |
| 2026-04-28 18:49 | 5.72263 | -55.17343 | 10735 ft | 241 kts | 227° |
| 2026-04-28 18:49 | 5.71525 | -55.18196 | 10481 ft | 239 kts | 226° |
| 2026-04-28 18:49 | 5.70084 | -55.19861 | 10353 ft | 239 kts | 226° |
| 2026-04-28 18:49 | 5.68972 | -55.21142 | 10196 ft | 256 kts | 227° |
| 2026-04-28 18:50 | 5.67769 | -55.22529 | 9712 ft | 283 kts | 227° |
| 2026-04-28 18:50 | 5.66434 | -55.24074 | 9138 ft | 301 kts | 227° |
| 2026-04-28 18:50 | 5.64992 | -55.25744 | 8588 ft | 332 kts | 227° |
| 2026-04-28 18:50 | 5.63414 | -55.27563 | 7969 ft | 358 kts | 227° |
| 2026-04-28 18:51 | 5.61851 | -55.29373 | 7364 ft | 323 kts | 227° |
| 2026-04-28 18:51 | 5.60448 | -55.30999 | 6784 ft | 290 kts | 227° |
| 2026-04-28 18:51 | 5.59178 | -55.32466 | 6268 ft | 268 kts | 227° |
| 2026-04-28 18:51 | 5.58003 | -55.33819 | 5778 ft | 249 kts | 227° |
| 2026-04-28 18:52 | 5.56909 | -55.35082 | 5348 ft | 235 kts | 226° |
| 2026-04-28 18:52 | 5.55862 | -55.36266 | 4944 ft | 219 kts | 221° |
| 2026-04-28 18:52 | 5.54604 | -55.36964 | 4566 ft | 200 kts | 186° |
| 2026-04-28 18:52 | 5.53308 | -55.37029 | 4487 ft | 174 kts | 176° |
| 2026-04-28 18:53 | 5.52132 | -55.37025 | 4429 ft | 168 kts | 174° |
| 2026-04-28 18:53 | 5.50933 | -55.37010 | 4190 ft | 183 kts | 174° |
| 2026-04-28 18:53 | 5.49601 | -55.37001 | 3939 ft | 194 kts | 175° |
| 2026-04-28 18:53 | 5.48279 | -55.36996 | 3677 ft | 182 kts | 175° |
| 2026-04-28 18:54 | 5.47068 | -55.36992 | 3456 ft | 167 kts | 175° |
| 2026-04-28 18:54 | 5.46015 | -55.36766 | 3219 ft | 152 kts | 142° |
| 2026-04-28 18:54 | 5.45335 | -55.36018 | 3047 ft | 140 kts | 113° |
| 2026-04-28 18:54 | 5.45191 | -55.35071 | 2911 ft | 141 kts | 88° |
| 2026-04-28 18:55 | 5.45192 | -55.34059 | 2707 ft | 145 kts | 90° |
| 2026-04-28 18:55 | 5.45197 | -55.33375 | 2565 ft | 145 kts | 90° |
| 2026-04-28 18:55 | 5.45204 | -55.32059 | 2349 ft | 141 kts | 89° |
| 2026-04-28 18:55 | 5.45212 | -55.31077 | 2126 ft | 139 kts | 89° |
| 2026-04-28 18:56 | 5.45216 | -55.30118 | 1951 ft | 138 kts | 89° |
| 2026-04-28 18:56 | 5.45225 | -55.29133 | 1779 ft | 143 kts | 88° |
| 2026-04-28 18:56 | 5.45230 | -55.28139 | 1582 ft | 144 kts | 88° |
| 2026-04-28 18:56 | 5.45234 | -55.27125 | 1390 ft | 145 kts | 87° |
| 2026-04-28 18:57 | 5.45243 | -55.26117 | 1200 ft | 143 kts | 90° |
| 2026-04-28 18:57 | 5.45247 | -55.25086 | 999 ft | 151 kts | 87° |
| 2026-04-28 18:57 | 5.45260 | -55.24048 | 959 ft | 146 kts | 89° |
| 2026-04-28 18:57 | 5.45265 | -55.23012 | 812 ft | 153 kts | 88° |
| 2026-04-28 18:58 | 5.45251 | -55.21959 | 597 ft | 147 kts | 87° |
| 2026-04-28 18:58 | 5.45274 | -55.20963 | 291 ft | 141 kts | 87° |
| 2026-04-28 18:58 | 5.45284 | -55.20012 | 63 ft | 125 kts | 90° |
| 2026-04-28 18:58 | 5.45285 | -55.19334 | 64 ft | 66 kts | 90° |
| 2026-04-28 18:59 | 5.45287 | -55.19037 | 62 ft | 25 kts | 89° |
| 2026-04-28 18:59 | 5.45287 | -55.18854 | 59 ft | 33 kts | 90° |
| 2026-04-28 18:59 | 5.45290 | -55.18562 | 59 ft | 50 kts | 89° |
| 2026-04-28 18:59 | 5.45295 | -55.18184 | 61 ft | 53 kts | 89° |
| 2026-04-28 19:00 | 5.45298 | -55.17854 | 64 ft | 43 kts | 90° |
| 2026-04-28 19:00 | 5.45297 | -55.17577 | 64 ft | 35 kts | 90° |
| 2026-04-28 19:00 | 5.45345 | -55.17446 | 60 ft | 17 kts | 43° |
| 2026-04-28 19:00 | 5.45428 | -55.17367 | 59 ft | 15 kts | 45° |
| 2026-04-28 19:01 | 5.45459 | -55.17298 | 63 ft | 8 kts | 85° |
| 2026-04-28 19:01 | 5.45453 | -55.17244 | 63 ft | 8 kts | 109° |
| 2026-04-28 19:01 | 5.45421 | -55.17220 | 62 ft | 7 kts | 163° |
| 2026-04-28 19:01 | 5.45313 | -55.17232 | 63 ft | 16 kts | 216° |
| 2026-04-28 19:02 | 5.45298 | -55.17306 | 61 ft | 25 kts | 269° |
| 2026-04-28 19:02 | 5.45296 | -55.17674 | 64 ft | 79 kts | 270° |
| 2026-04-28 19:02 | 5.45293 | -55.18353 | 63 ft | 114 kts | 270° |
| 2026-04-28 19:02 | 5.45289 | -55.18964 | 62 ft | 66 kts | 270° |
| 2026-04-28 19:03 | 5.45284 | -55.19356 | 64 ft | 48 kts | 270° |
| 2026-04-28 19:03 | 5.45282 | -55.19585 | 65 ft | 16 kts | 270° |
| 2026-04-28 19:03 | 5.45284 | -55.19683 | 63 ft | 9 kts | 284° |
| 2026-04-28 19:03 | 5.45307 | -55.19718 | 65 ft | 3 kts | 319° |
| 2026-04-28 19:04 | 5.45332 | -55.19726 | 63 ft | 2 kts | 348° |
| 2026-04-28 19:04 | 5.45340 | -55.19727 | 65 ft | 4 kts | 354° |
| 2026-04-28 19:04 | 5.45433 | -55.19745 | 61 ft | 11 kts | 328° |
| 2026-04-28 19:04 | 5.45444 | -55.19774 | 71 ft | 6 kts | 278° |
| 2026-04-28 19:05 | 5.45457 | -55.19799 | 61 ft | 2 kts | 316° |
| 2026-04-28 19:05 | 5.45477 | -55.19804 | 66 ft | 3 kts | 352° |
| 2026-04-28 19:05 | 5.45504 | -55.19803 | 63 ft | 4 kts | 2° |
| 2026-04-28 19:05 | 5.45537 | -55.19802 | 63 ft | 5 kts | 2° |
| 2026-04-28 19:06 | 5.45575 | -55.19795 | 60 ft | 3 kts | 26° |
| 2026-04-28 19:06 | 5.45580 | -55.19787 | 62 ft | 3 kts | 53° |
| 2026-04-28 19:06 | 5.45587 | -55.19755 | 61 ft | 0 kts | 84° |